<?xml version="1.0" encoding="UTF-8" standalone="no" ?>
<gpx xmlns="http://www.topografix.com/GPX/1/1" xmlns:xsi="http://www.w3.org/2001/XMLSchema-instance" xsi:schemaLocation="http://www.topografix.com/GPX/1/1 http://www.topografix.com/GPX/1/1/gpx.xsd" version="1.1" creator="VisuGPX - https://www.visugpx.com">
  <metadata>
    <name>J3-Beaufor-Croix Bonhomme-Gite Molliessoulaz</name>
  </metadata>
  <trk>
    <name><![CDATA[J3-Beaufor-Croix Bonhomme-Gite Molliessoulaz]]></name>
    <trkseg>
      <trkpt lat="45.72195" lon="6.71719">
        <ele>2435</ele>
        <time>2022-06-09T20:58:41Z</time>
      </trkpt>
      <trkpt lat="45.72191" lon="6.71743">
        <ele>2436</ele>
        <time>2022-06-09T20:58:45Z</time>
      </trkpt>
      <trkpt lat="45.72205" lon="6.71752">
        <ele>2440</ele>
        <time>2022-06-09T20:58:49Z</time>
      </trkpt>
      <trkpt lat="45.72237" lon="6.71745">
        <ele>2447</ele>
        <time>2022-06-09T20:58:56Z</time>
      </trkpt>
      <trkpt lat="45.72277" lon="6.71718">
        <ele>2455</ele>
        <time>2022-06-09T20:59:06Z</time>
      </trkpt>
      <trkpt lat="45.72358" lon="6.71709">
        <ele>2472</ele>
        <time>2022-06-09T20:59:25Z</time>
      </trkpt>
      <trkpt lat="45.72411" lon="6.71715">
        <ele>2481</ele>
        <time>2022-06-09T20:59:38Z</time>
      </trkpt>
      <trkpt lat="45.72426" lon="6.717">
        <ele>2482</ele>
        <time>2022-06-09T20:59:42Z</time>
      </trkpt>
      <trkpt lat="45.72425" lon="6.71682">
        <ele>2479</ele>
        <time>2022-06-09T20:59:45Z</time>
      </trkpt>
      <trkpt lat="45.72408" lon="6.71647">
        <ele>2471</ele>
        <time>2022-06-09T20:59:52Z</time>
      </trkpt>
      <trkpt lat="45.72475" lon="6.71617">
        <ele>2472</ele>
        <time>2022-06-09T21:00:08Z</time>
      </trkpt>
      <trkpt lat="45.725" lon="6.71633">
        <ele>2478</ele>
        <time>2022-06-09T21:00:15Z</time>
      </trkpt>
      <trkpt lat="45.72517" lon="6.71611">
        <ele>2475</ele>
        <time>2022-06-09T21:00:20Z</time>
      </trkpt>
      <trkpt lat="45.72537" lon="6.71608">
        <ele>2477</ele>
        <time>2022-06-09T21:00:25Z</time>
      </trkpt>
      <trkpt lat="45.72551" lon="6.71618">
        <ele>2482</ele>
        <time>2022-06-09T21:00:29Z</time>
      </trkpt>
      <trkpt lat="45.72565" lon="6.71564">
        <ele>2473</ele>
        <time>2022-06-09T21:00:38Z</time>
      </trkpt>
      <trkpt lat="45.72537" lon="6.71481">
        <ele>2448</ele>
        <time>2022-06-09T21:00:53Z</time>
      </trkpt>
      <trkpt lat="45.72566" lon="6.71332">
        <ele>2426</ele>
        <time>2022-06-09T21:01:18Z</time>
      </trkpt>
      <trkpt lat="45.7258" lon="6.7128">
        <ele>2416</ele>
        <time>2022-06-09T21:01:27Z</time>
      </trkpt>
      <trkpt lat="45.72665" lon="6.71216">
        <ele>2423</ele>
        <time>2022-06-09T21:01:50Z</time>
      </trkpt>
      <trkpt lat="45.72695" lon="6.71133">
        <ele>2411</ele>
        <time>2022-06-09T21:02:05Z</time>
      </trkpt>
      <trkpt lat="45.72773" lon="6.71092">
        <ele>2414</ele>
        <time>2022-06-09T21:02:24Z</time>
      </trkpt>
      <trkpt lat="45.72804" lon="6.7103">
        <ele>2402</ele>
        <time>2022-06-09T21:02:37Z</time>
      </trkpt>
      <trkpt lat="45.72946" lon="6.71028">
        <ele>2428</ele>
        <time>2022-06-09T21:03:10Z</time>
      </trkpt>
      <trkpt lat="45.73017" lon="6.70914">
        <ele>2406</ele>
        <time>2022-06-09T21:03:35Z</time>
      </trkpt>
      <trkpt lat="45.73088" lon="6.70855">
        <ele>2389</ele>
        <time>2022-06-09T21:03:54Z</time>
      </trkpt>
      <trkpt lat="45.73266" lon="6.70822">
        <ele>2358</ele>
        <time>2022-06-09T21:04:36Z</time>
      </trkpt>
      <trkpt lat="45.73329" lon="6.70867">
        <ele>2365</ele>
        <time>2022-06-09T21:04:52Z</time>
      </trkpt>
      <trkpt lat="45.73404" lon="6.70816">
        <ele>2348</ele>
        <time>2022-06-09T21:05:12Z</time>
      </trkpt>
      <trkpt lat="45.73435" lon="6.70769">
        <ele>2332</ele>
        <time>2022-06-09T21:05:22Z</time>
      </trkpt>
      <trkpt lat="45.73441" lon="6.70734">
        <ele>2324</ele>
        <time>2022-06-09T21:05:28Z</time>
      </trkpt>
      <trkpt lat="45.73504" lon="6.70647">
        <ele>2331</ele>
        <time>2022-06-09T21:05:49Z</time>
      </trkpt>
      <trkpt lat="45.73539" lon="6.70681">
        <ele>2326</ele>
        <time>2022-06-09T21:05:58Z</time>
      </trkpt>
      <trkpt lat="45.73574" lon="6.7071">
        <ele>2316</ele>
        <time>2022-06-09T21:06:08Z</time>
      </trkpt>
      <trkpt lat="45.73742" lon="6.70838">
        <ele>2248</ele>
        <time>2022-06-09T21:06:52Z</time>
      </trkpt>
      <trkpt lat="45.73783" lon="6.70899">
        <ele>2235</ele>
        <time>2022-06-09T21:07:06Z</time>
      </trkpt>
      <trkpt lat="45.73788" lon="6.70942">
        <ele>2225</ele>
        <time>2022-06-09T21:07:13Z</time>
      </trkpt>
      <trkpt lat="45.73813" lon="6.70992">
        <ele>2205</ele>
        <time>2022-06-09T21:07:23Z</time>
      </trkpt>
      <trkpt lat="45.73838" lon="6.71001">
        <ele>2197</ele>
        <time>2022-06-09T21:07:29Z</time>
      </trkpt>
      <trkpt lat="45.73924" lon="6.71184">
        <ele>2140</ele>
        <time>2022-06-09T21:08:05Z</time>
      </trkpt>
      <trkpt lat="45.73939" lon="6.71228">
        <ele>2134</ele>
        <time>2022-06-09T21:08:13Z</time>
      </trkpt>
      <trkpt lat="45.74037" lon="6.71321">
        <ele>2112</ele>
        <time>2022-06-09T21:08:41Z</time>
      </trkpt>
      <trkpt lat="45.74079" lon="6.71377">
        <ele>2107</ele>
        <time>2022-06-09T21:08:54Z</time>
      </trkpt>
      <trkpt lat="45.74123" lon="6.7138">
        <ele>2097</ele>
        <time>2022-06-09T21:09:04Z</time>
      </trkpt>
      <trkpt lat="45.74212" lon="6.71455">
        <ele>2085</ele>
        <time>2022-06-09T21:09:28Z</time>
      </trkpt>
      <trkpt lat="45.74278" lon="6.71533">
        <ele>2077</ele>
        <time>2022-06-09T21:09:48Z</time>
      </trkpt>
      <trkpt lat="45.74364" lon="6.71561">
        <ele>2063</ele>
        <time>2022-06-09T21:10:09Z</time>
      </trkpt>
      <trkpt lat="45.74424" lon="6.71596">
        <ele>2051</ele>
        <time>2022-06-09T21:10:24Z</time>
      </trkpt>
      <trkpt lat="45.7448" lon="6.71605">
        <ele>2040</ele>
        <time>2022-06-09T21:10:37Z</time>
      </trkpt>
      <trkpt lat="45.74493" lon="6.71654">
        <ele>2040</ele>
        <time>2022-06-09T21:10:46Z</time>
      </trkpt>
      <trkpt lat="45.74517" lon="6.71688">
        <ele>2031</ele>
        <time>2022-06-09T21:10:54Z</time>
      </trkpt>
      <trkpt lat="45.74663" lon="6.7181">
        <ele>1977</ele>
        <time>2022-06-09T21:11:33Z</time>
      </trkpt>
      <trkpt lat="45.74659" lon="6.71723">
        <ele>1970</ele>
        <time>2022-06-09T21:11:47Z</time>
      </trkpt>
      <trkpt lat="45.74731" lon="6.7154">
        <ele>1941</ele>
        <time>2022-06-09T21:12:22Z</time>
      </trkpt>
      <trkpt lat="45.74772" lon="6.71473">
        <ele>1935</ele>
        <time>2022-06-09T21:12:36Z</time>
      </trkpt>
      <trkpt lat="45.74859" lon="6.71417">
        <ele>1927</ele>
        <time>2022-06-09T21:12:58Z</time>
      </trkpt>
      <trkpt lat="45.74951" lon="6.71239">
        <ele>1925</ele>
        <time>2022-06-09T21:13:35Z</time>
      </trkpt>
      <trkpt lat="45.7501" lon="6.71111">
        <ele>1923</ele>
        <time>2022-06-09T21:14:00Z</time>
      </trkpt>
      <trkpt lat="45.75049" lon="6.71039">
        <ele>1925</ele>
        <time>2022-06-09T21:14:14Z</time>
      </trkpt>
      <trkpt lat="45.75122" lon="6.70995">
        <ele>1907</ele>
        <time>2022-06-09T21:14:33Z</time>
      </trkpt>
      <trkpt lat="45.75123" lon="6.70949">
        <ele>1916</ele>
        <time>2022-06-09T21:14:40Z</time>
      </trkpt>
      <trkpt lat="45.75208" lon="6.70861">
        <ele>1892</ele>
        <time>2022-06-09T21:15:05Z</time>
      </trkpt>
      <trkpt lat="45.75258" lon="6.70744">
        <ele>1887</ele>
        <time>2022-06-09T21:15:27Z</time>
      </trkpt>
      <trkpt lat="45.75336" lon="6.7058">
        <ele>1892</ele>
        <time>2022-06-09T21:16:00Z</time>
      </trkpt>
      <trkpt lat="45.7537" lon="6.70412">
        <ele>1904</ele>
        <time>2022-06-09T21:16:28Z</time>
      </trkpt>
      <trkpt lat="45.75372" lon="6.70289">
        <ele>1924</ele>
        <time>2022-06-09T21:16:48Z</time>
      </trkpt>
      <trkpt lat="45.75486" lon="6.70333">
        <ele>1892</ele>
        <time>2022-06-09T21:17:16Z</time>
      </trkpt>
      <trkpt lat="45.75524" lon="6.70245">
        <ele>1907</ele>
        <time>2022-06-09T21:17:33Z</time>
      </trkpt>
      <trkpt lat="45.75517" lon="6.70192">
        <ele>1918</ele>
        <time>2022-06-09T21:17:41Z</time>
      </trkpt>
      <trkpt lat="45.75537" lon="6.70139">
        <ele>1925</ele>
        <time>2022-06-09T21:17:51Z</time>
      </trkpt>
      <trkpt lat="45.75579" lon="6.70157">
        <ele>1915</ele>
        <time>2022-06-09T21:18:01Z</time>
      </trkpt>
      <trkpt lat="45.75603" lon="6.70124">
        <ele>1923</ele>
        <time>2022-06-09T21:18:09Z</time>
      </trkpt>
      <trkpt lat="45.75638" lon="6.70151">
        <ele>1919</ele>
        <time>2022-06-09T21:18:18Z</time>
      </trkpt>
      <trkpt lat="45.75647" lon="6.70248">
        <ele>1894</ele>
        <time>2022-06-09T21:18:34Z</time>
      </trkpt>
      <trkpt lat="45.75737" lon="6.70156">
        <ele>1918</ele>
        <time>2022-06-09T21:19:00Z</time>
      </trkpt>
      <trkpt lat="45.7589" lon="6.70151">
        <ele>1930</ele>
        <time>2022-06-09T21:19:36Z</time>
      </trkpt>
      <trkpt lat="45.75956" lon="6.70194">
        <ele>1932</ele>
        <time>2022-06-09T21:19:53Z</time>
      </trkpt>
      <trkpt lat="45.76008" lon="6.70203">
        <ele>1938</ele>
        <time>2022-06-09T21:20:05Z</time>
      </trkpt>
      <trkpt lat="45.76067" lon="6.70224">
        <ele>1934</ele>
        <time>2022-06-09T21:20:19Z</time>
      </trkpt>
      <trkpt lat="45.76423" lon="6.70069">
        <ele>1947</ele>
        <time>2022-06-09T21:21:46Z</time>
      </trkpt>
      <trkpt lat="45.76633" lon="6.70091">
        <ele>1941</ele>
        <time>2022-06-09T21:22:35Z</time>
      </trkpt>
      <trkpt lat="45.76662" lon="6.70228">
        <ele>1909</ele>
        <time>2022-06-09T21:22:59Z</time>
      </trkpt>
      <trkpt lat="45.76782" lon="6.70378">
        <ele>1891</ele>
        <time>2022-06-09T21:23:36Z</time>
      </trkpt>
      <trkpt lat="45.76722" lon="6.70447">
        <ele>1872</ele>
        <time>2022-06-09T21:23:54Z</time>
      </trkpt>
      <trkpt lat="45.76788" lon="6.70529">
        <ele>1862</ele>
        <time>2022-06-09T21:24:14Z</time>
      </trkpt>
      <trkpt lat="45.76803" lon="6.70636">
        <ele>1839</ele>
        <time>2022-06-09T21:24:32Z</time>
      </trkpt>
      <trkpt lat="45.76944" lon="6.70606">
        <ele>1835</ele>
        <time>2022-06-09T21:25:05Z</time>
      </trkpt>
      <trkpt lat="45.7698" lon="6.707">
        <ele>1809</ele>
        <time>2022-06-09T21:25:23Z</time>
      </trkpt>
      <trkpt lat="45.77168" lon="6.70758">
        <ele>1832</ele>
        <time>2022-06-09T21:26:08Z</time>
      </trkpt>
      <trkpt lat="45.77216" lon="6.70816">
        <ele>1827</ele>
        <time>2022-06-09T21:26:22Z</time>
      </trkpt>
      <trkpt lat="45.77304" lon="6.70787">
        <ele>1835</ele>
        <time>2022-06-09T21:26:43Z</time>
      </trkpt>
      <trkpt lat="45.77339" lon="6.70681">
        <ele>1832</ele>
        <time>2022-06-09T21:27:03Z</time>
      </trkpt>
      <trkpt lat="45.77333" lon="6.70564">
        <ele>1844</ele>
        <time>2022-06-09T21:27:22Z</time>
      </trkpt>
      <trkpt lat="45.77439" lon="6.70509">
        <ele>1822</ele>
        <time>2022-06-09T21:27:48Z</time>
      </trkpt>
      <trkpt lat="45.77437" lon="6.7057">
        <ele>1800</ele>
        <time>2022-06-09T21:27:58Z</time>
      </trkpt>
      <trkpt lat="45.77542" lon="6.70502">
        <ele>1791</ele>
        <time>2022-06-09T21:28:25Z</time>
      </trkpt>
      <trkpt lat="45.77612" lon="6.70421">
        <ele>1799</ele>
        <time>2022-06-09T21:28:46Z</time>
      </trkpt>
      <trkpt lat="45.77658" lon="6.70406">
        <ele>1795</ele>
        <time>2022-06-09T21:28:57Z</time>
      </trkpt>
      <trkpt lat="45.77683" lon="6.70345">
        <ele>1816</ele>
        <time>2022-06-09T21:29:08Z</time>
      </trkpt>
      <trkpt lat="45.77741" lon="6.70327">
        <ele>1809</ele>
        <time>2022-06-09T21:29:22Z</time>
      </trkpt>
      <trkpt lat="45.77928" lon="6.70174">
        <ele>1814</ele>
        <time>2022-06-09T21:30:13Z</time>
      </trkpt>
      <trkpt lat="45.77998" lon="6.70001">
        <ele>1803</ele>
        <time>2022-06-09T21:30:45Z</time>
      </trkpt>
      <trkpt lat="45.77974" lon="6.69933">
        <ele>1811</ele>
        <time>2022-06-09T21:30:58Z</time>
      </trkpt>
      <trkpt lat="45.78001" lon="6.69826">
        <ele>1816</ele>
        <time>2022-06-09T21:31:16Z</time>
      </trkpt>
      <trkpt lat="45.78004" lon="6.69729">
        <ele>1821</ele>
        <time>2022-06-09T21:31:32Z</time>
      </trkpt>
      <trkpt lat="45.78011" lon="6.69646">
        <ele>1824</ele>
        <time>2022-06-09T21:31:45Z</time>
      </trkpt>
      <trkpt lat="45.78042" lon="6.69577">
        <ele>1825</ele>
        <time>2022-06-09T21:31:59Z</time>
      </trkpt>
      <trkpt lat="45.78078" lon="6.69546">
        <ele>1821</ele>
        <time>2022-06-09T21:32:09Z</time>
      </trkpt>
      <trkpt lat="45.78071" lon="6.69502">
        <ele>1827</ele>
        <time>2022-06-09T21:32:16Z</time>
      </trkpt>
      <trkpt lat="45.78082" lon="6.69456">
        <ele>1829</ele>
        <time>2022-06-09T21:32:24Z</time>
      </trkpt>
      <trkpt lat="45.78062" lon="6.69233">
        <ele>1863</ele>
        <time>2022-06-09T21:33:01Z</time>
      </trkpt>
      <trkpt lat="45.78033" lon="6.69141">
        <ele>1883</ele>
        <time>2022-06-09T21:33:17Z</time>
      </trkpt>
      <trkpt lat="45.7802" lon="6.69137">
        <ele>1886</ele>
        <time>2022-06-09T21:33:20Z</time>
      </trkpt>
      <trkpt lat="45.78035" lon="6.69103">
        <ele>1892</ele>
        <time>2022-06-09T21:33:27Z</time>
      </trkpt>
      <trkpt lat="45.77996" lon="6.69089">
        <ele>1898</ele>
        <time>2022-06-09T21:33:36Z</time>
      </trkpt>
      <trkpt lat="45.78044" lon="6.69032">
        <ele>1911</ele>
        <time>2022-06-09T21:33:51Z</time>
      </trkpt>
      <trkpt lat="45.78102" lon="6.69005">
        <ele>1915</ele>
        <time>2022-06-09T21:34:05Z</time>
      </trkpt>
      <trkpt lat="45.78097" lon="6.68935">
        <ele>1929</ele>
        <time>2022-06-09T21:34:16Z</time>
      </trkpt>
      <trkpt lat="45.78114" lon="6.68866">
        <ele>1942</ele>
        <time>2022-06-09T21:34:28Z</time>
      </trkpt>
      <trkpt lat="45.78167" lon="6.6886">
        <ele>1935</ele>
        <time>2022-06-09T21:34:41Z</time>
      </trkpt>
      <trkpt lat="45.78213" lon="6.6879">
        <ele>1937</ele>
        <time>2022-06-09T21:34:56Z</time>
      </trkpt>
      <trkpt lat="45.78256" lon="6.68749">
        <ele>1930</ele>
        <time>2022-06-09T21:35:08Z</time>
      </trkpt>
      <trkpt lat="45.78243" lon="6.68684">
        <ele>1932</ele>
        <time>2022-06-09T21:35:19Z</time>
      </trkpt>
      <trkpt lat="45.7821" lon="6.68604">
        <ele>1940</ele>
        <time>2022-06-09T21:35:34Z</time>
      </trkpt>
      <trkpt lat="45.78185" lon="6.6856">
        <ele>1948</ele>
        <time>2022-06-09T21:35:44Z</time>
      </trkpt>
      <trkpt lat="45.78133" lon="6.6845">
        <ele>1965</ele>
        <time>2022-06-09T21:36:05Z</time>
      </trkpt>
      <trkpt lat="45.78102" lon="6.68416">
        <ele>1974</ele>
        <time>2022-06-09T21:36:14Z</time>
      </trkpt>
      <trkpt lat="45.78081" lon="6.68342">
        <ele>1979</ele>
        <time>2022-06-09T21:36:28Z</time>
      </trkpt>
      <trkpt lat="45.78041" lon="6.68264">
        <ele>1989</ele>
        <time>2022-06-09T21:36:43Z</time>
      </trkpt>
      <trkpt lat="45.77941" lon="6.68228">
        <ele>2020</ele>
        <time>2022-06-09T21:37:07Z</time>
      </trkpt>
      <trkpt lat="45.77918" lon="6.68279">
        <ele>2028</ele>
        <time>2022-06-09T21:37:17Z</time>
      </trkpt>
      <trkpt lat="45.77926" lon="6.68366">
        <ele>2031</ele>
        <time>2022-06-09T21:37:32Z</time>
      </trkpt>
      <trkpt lat="45.77943" lon="6.684">
        <ele>2026</ele>
        <time>2022-06-09T21:37:38Z</time>
      </trkpt>
      <trkpt lat="45.77908" lon="6.68471">
        <ele>2037</ele>
        <time>2022-06-09T21:37:53Z</time>
      </trkpt>
      <trkpt lat="45.77876" lon="6.6847">
        <ele>2045</ele>
        <time>2022-06-09T21:38:00Z</time>
      </trkpt>
      <trkpt lat="45.77828" lon="6.68412">
        <ele>2057</ele>
        <time>2022-06-09T21:38:15Z</time>
      </trkpt>
      <trkpt lat="45.7781" lon="6.68413">
        <ele>2062</ele>
        <time>2022-06-09T21:38:19Z</time>
      </trkpt>
      <trkpt lat="45.77792" lon="6.68429">
        <ele>2065</ele>
        <time>2022-06-09T21:38:24Z</time>
      </trkpt>
      <trkpt lat="45.77794" lon="6.68462">
        <ele>2063</ele>
        <time>2022-06-09T21:38:29Z</time>
      </trkpt>
      <trkpt lat="45.77775" lon="6.68475">
        <ele>2066</ele>
        <time>2022-06-09T21:38:34Z</time>
      </trkpt>
      <trkpt lat="45.77716" lon="6.68443">
        <ele>2078</ele>
        <time>2022-06-09T21:38:49Z</time>
      </trkpt>
      <trkpt lat="45.77689" lon="6.68301">
        <ele>2096</ele>
        <time>2022-06-09T21:39:13Z</time>
      </trkpt>
      <trkpt lat="45.77738" lon="6.68252">
        <ele>2101</ele>
        <time>2022-06-09T21:39:27Z</time>
      </trkpt>
      <trkpt lat="45.77769" lon="6.68172">
        <ele>2084</ele>
        <time>2022-06-09T21:39:42Z</time>
      </trkpt>
      <trkpt lat="45.77776" lon="6.68039">
        <ele>2072</ele>
        <time>2022-06-09T21:40:03Z</time>
      </trkpt>
      <trkpt lat="45.77804" lon="6.67965">
        <ele>2062</ele>
        <time>2022-06-09T21:40:17Z</time>
      </trkpt>
      <trkpt lat="45.77799" lon="6.67948">
        <ele>2062</ele>
        <time>2022-06-09T21:40:20Z</time>
      </trkpt>
      <trkpt lat="45.77809" lon="6.67946">
        <ele>2060</ele>
        <time>2022-06-09T21:40:22Z</time>
      </trkpt>
      <trkpt lat="45.77803" lon="6.67932">
        <ele>2060</ele>
        <time>2022-06-09T21:40:25Z</time>
      </trkpt>
      <trkpt lat="45.77773" lon="6.67902">
        <ele>2056</ele>
        <time>2022-06-09T21:40:34Z</time>
      </trkpt>
      <trkpt lat="45.77793" lon="6.67884">
        <ele>2050</ele>
        <time>2022-06-09T21:40:39Z</time>
      </trkpt>
      <trkpt lat="45.7781" lon="6.67891">
        <ele>2051</ele>
        <time>2022-06-09T21:40:43Z</time>
      </trkpt>
      <trkpt lat="45.77804" lon="6.67875">
        <ele>2047</ele>
        <time>2022-06-09T21:40:46Z</time>
      </trkpt>
      <trkpt lat="45.77879" lon="6.6787">
        <ele>2043</ele>
        <time>2022-06-09T21:41:04Z</time>
      </trkpt>
      <trkpt lat="45.7792" lon="6.67841">
        <ele>2041</ele>
        <time>2022-06-09T21:41:15Z</time>
      </trkpt>
      <trkpt lat="45.7794" lon="6.67849">
        <ele>2036</ele>
        <time>2022-06-09T21:41:19Z</time>
      </trkpt>
      <trkpt lat="45.77966" lon="6.67823">
        <ele>2031</ele>
        <time>2022-06-09T21:41:27Z</time>
      </trkpt>
      <trkpt lat="45.77983" lon="6.67753">
        <ele>2027</ele>
        <time>2022-06-09T21:41:39Z</time>
      </trkpt>
      <trkpt lat="45.77978" lon="6.6772">
        <ele>2025</ele>
        <time>2022-06-09T21:41:44Z</time>
      </trkpt>
      <trkpt lat="45.78013" lon="6.67635">
        <ele>2020</ele>
        <time>2022-06-09T21:42:00Z</time>
      </trkpt>
      <trkpt lat="45.78051" lon="6.67627">
        <ele>2016</ele>
        <time>2022-06-09T21:42:09Z</time>
      </trkpt>
      <trkpt lat="45.78072" lon="6.67651">
        <ele>2014</ele>
        <time>2022-06-09T21:42:16Z</time>
      </trkpt>
      <trkpt lat="45.78087" lon="6.676">
        <ele>2012</ele>
        <time>2022-06-09T21:42:25Z</time>
      </trkpt>
      <trkpt lat="45.78173" lon="6.67542">
        <ele>2000</ele>
        <time>2022-06-09T21:42:47Z</time>
      </trkpt>
      <trkpt lat="45.78203" lon="6.67533">
        <ele>1994</ele>
        <time>2022-06-09T21:42:54Z</time>
      </trkpt>
      <trkpt lat="45.78237" lon="6.6749">
        <ele>1989</ele>
        <time>2022-06-09T21:43:05Z</time>
      </trkpt>
      <trkpt lat="45.78243" lon="6.67458">
        <ele>1986</ele>
        <time>2022-06-09T21:43:10Z</time>
      </trkpt>
      <trkpt lat="45.78295" lon="6.6745">
        <ele>1983</ele>
        <time>2022-06-09T21:43:22Z</time>
      </trkpt>
      <trkpt lat="45.78335" lon="6.67424">
        <ele>1985</ele>
        <time>2022-06-09T21:43:32Z</time>
      </trkpt>
      <trkpt lat="45.78358" lon="6.67399">
        <ele>1985</ele>
        <time>2022-06-09T21:43:39Z</time>
      </trkpt>
      <trkpt lat="45.78393" lon="6.67396">
        <ele>1986</ele>
        <time>2022-06-09T21:43:47Z</time>
      </trkpt>
      <trkpt lat="45.78432" lon="6.67357">
        <ele>1987</ele>
        <time>2022-06-09T21:43:58Z</time>
      </trkpt>
      <trkpt lat="45.78481" lon="6.67361">
        <ele>1991</ele>
        <time>2022-06-09T21:44:10Z</time>
      </trkpt>
      <trkpt lat="45.7853" lon="6.6732">
        <ele>1990</ele>
        <time>2022-06-09T21:44:23Z</time>
      </trkpt>
      <trkpt lat="45.78544" lon="6.67256">
        <ele>1992</ele>
        <time>2022-06-09T21:44:34Z</time>
      </trkpt>
      <trkpt lat="45.78684" lon="6.6704">
        <ele>2007</ele>
        <time>2022-06-09T21:45:22Z</time>
      </trkpt>
      <trkpt lat="45.78746" lon="6.67021">
        <ele>2005</ele>
        <time>2022-06-09T21:45:37Z</time>
      </trkpt>
      <trkpt lat="45.78832" lon="6.67042">
        <ele>2008</ele>
        <time>2022-06-09T21:45:57Z</time>
      </trkpt>
      <trkpt lat="45.78887" lon="6.67014">
        <ele>2014</ele>
        <time>2022-06-09T21:46:11Z</time>
      </trkpt>
      <trkpt lat="45.78906" lon="6.66951">
        <ele>2022</ele>
        <time>2022-06-09T21:46:22Z</time>
      </trkpt>
      <trkpt lat="45.7891" lon="6.66825">
        <ele>2029</ele>
        <time>2022-06-09T21:46:43Z</time>
      </trkpt>
      <trkpt lat="45.79007" lon="6.66676">
        <ele>2043</ele>
        <time>2022-06-09T21:47:16Z</time>
      </trkpt>
      <trkpt lat="45.79028" lon="6.66599">
        <ele>2036</ele>
        <time>2022-06-09T21:47:29Z</time>
      </trkpt>
      <trkpt lat="45.79074" lon="6.66526">
        <ele>2041</ele>
        <time>2022-06-09T21:47:45Z</time>
      </trkpt>
      <trkpt lat="45.79098" lon="6.66412">
        <ele>2034</ele>
        <time>2022-06-09T21:48:05Z</time>
      </trkpt>
      <trkpt lat="45.79103" lon="6.66315">
        <ele>2028</ele>
        <time>2022-06-09T21:48:21Z</time>
      </trkpt>
      <trkpt lat="45.79172" lon="6.66151">
        <ele>2031</ele>
        <time>2022-06-09T21:48:52Z</time>
      </trkpt>
      <trkpt lat="45.79209" lon="6.65707">
        <ele>2000</ele>
        <time>2022-06-09T21:50:05Z</time>
      </trkpt>
      <trkpt lat="45.7915" lon="6.65724">
        <ele>1975</ele>
        <time>2022-06-09T21:50:19Z</time>
      </trkpt>
      <trkpt lat="45.79057" lon="6.65683">
        <ele>1949</ele>
        <time>2022-06-09T21:50:41Z</time>
      </trkpt>
      <trkpt lat="45.7896" lon="6.65693">
        <ele>1905</ele>
        <time>2022-06-09T21:51:04Z</time>
      </trkpt>
      <trkpt lat="45.78935" lon="6.65722">
        <ele>1889</ele>
        <time>2022-06-09T21:51:12Z</time>
      </trkpt>
      <trkpt lat="45.78896" lon="6.65667">
        <ele>1878</ele>
        <time>2022-06-09T21:51:24Z</time>
      </trkpt>
      <trkpt lat="45.78887" lon="6.65599">
        <ele>1864</ele>
        <time>2022-06-09T21:51:36Z</time>
      </trkpt>
      <trkpt lat="45.78866" lon="6.65599">
        <ele>1854</ele>
        <time>2022-06-09T21:51:41Z</time>
      </trkpt>
      <trkpt lat="45.78908" lon="6.6554">
        <ele>1858</ele>
        <time>2022-06-09T21:51:54Z</time>
      </trkpt>
      <trkpt lat="45.78914" lon="6.65475">
        <ele>1838</ele>
        <time>2022-06-09T21:52:05Z</time>
      </trkpt>
      <trkpt lat="45.78895" lon="6.65464">
        <ele>1827</ele>
        <time>2022-06-09T21:52:10Z</time>
      </trkpt>
      <trkpt lat="45.78943" lon="6.65437">
        <ele>1833</ele>
        <time>2022-06-09T21:52:22Z</time>
      </trkpt>
      <trkpt lat="45.78981" lon="6.65317">
        <ele>1818</ele>
        <time>2022-06-09T21:52:43Z</time>
      </trkpt>
      <trkpt lat="45.79042" lon="6.65282">
        <ele>1825</ele>
        <time>2022-06-09T21:52:59Z</time>
      </trkpt>
      <trkpt lat="45.79112" lon="6.65196">
        <ele>1820</ele>
        <time>2022-06-09T21:53:20Z</time>
      </trkpt>
      <trkpt lat="45.79392" lon="6.65">
        <ele>1854</ele>
        <time>2022-06-09T21:54:33Z</time>
      </trkpt>
      <trkpt lat="45.79392" lon="6.64913">
        <ele>1848</ele>
        <time>2022-06-09T21:54:47Z</time>
      </trkpt>
      <trkpt lat="45.79463" lon="6.64806">
        <ele>1859</ele>
        <time>2022-06-09T21:55:11Z</time>
      </trkpt>
      <trkpt lat="45.79465" lon="6.64765">
        <ele>1856</ele>
        <time>2022-06-09T21:55:18Z</time>
      </trkpt>
      <trkpt lat="45.7957" lon="6.64612">
        <ele>1894</ele>
        <time>2022-06-09T21:55:53Z</time>
      </trkpt>
      <trkpt lat="45.79515" lon="6.64372">
        <ele>1907</ele>
        <time>2022-06-09T21:56:34Z</time>
      </trkpt>
      <trkpt lat="45.79469" lon="6.64316">
        <ele>1908</ele>
        <time>2022-06-09T21:56:48Z</time>
      </trkpt>
      <trkpt lat="45.79465" lon="6.64286">
        <ele>1912</ele>
        <time>2022-06-09T21:56:53Z</time>
      </trkpt>
      <trkpt lat="45.7947" lon="6.64251">
        <ele>1919</ele>
        <time>2022-06-09T21:56:59Z</time>
      </trkpt>
      <trkpt lat="45.79487" lon="6.64211">
        <ele>1927</ele>
        <time>2022-06-09T21:57:06Z</time>
      </trkpt>
      <trkpt lat="45.79494" lon="6.64183">
        <ele>1932</ele>
        <time>2022-06-09T21:57:11Z</time>
      </trkpt>
      <trkpt lat="45.79475" lon="6.6417">
        <ele>1929</ele>
        <time>2022-06-09T21:57:16Z</time>
      </trkpt>
      <trkpt lat="45.79467" lon="6.6414">
        <ele>1930</ele>
        <time>2022-06-09T21:57:21Z</time>
      </trkpt>
      <trkpt lat="45.79485" lon="6.6407">
        <ele>1941</ele>
        <time>2022-06-09T21:57:34Z</time>
      </trkpt>
      <trkpt lat="45.7952" lon="6.64017">
        <ele>1952</ele>
        <time>2022-06-09T21:57:45Z</time>
      </trkpt>
      <trkpt lat="45.79502" lon="6.63943">
        <ele>1949</ele>
        <time>2022-06-09T21:57:58Z</time>
      </trkpt>
      <trkpt lat="45.79504" lon="6.63864">
        <ele>1951</ele>
        <time>2022-06-09T21:58:11Z</time>
      </trkpt>
      <trkpt lat="45.79515" lon="6.63765">
        <ele>1955</ele>
        <time>2022-06-09T21:58:27Z</time>
      </trkpt>
      <trkpt lat="45.79507" lon="6.63716">
        <ele>1956</ele>
        <time>2022-06-09T21:58:36Z</time>
      </trkpt>
      <trkpt lat="45.79446" lon="6.63541">
        <ele>1957</ele>
        <time>2022-06-09T21:59:07Z</time>
      </trkpt>
      <trkpt lat="45.79457" lon="6.63517">
        <ele>1965</ele>
        <time>2022-06-09T21:59:12Z</time>
      </trkpt>
      <trkpt lat="45.79447" lon="6.63469">
        <ele>1967</ele>
        <time>2022-06-09T21:59:20Z</time>
      </trkpt>
      <trkpt lat="45.79422" lon="6.63429">
        <ele>1962</ele>
        <time>2022-06-09T21:59:29Z</time>
      </trkpt>
      <trkpt lat="45.79398" lon="6.63397">
        <ele>1958</ele>
        <time>2022-06-09T21:59:37Z</time>
      </trkpt>
      <trkpt lat="45.79365" lon="6.63249">
        <ele>1960</ele>
        <time>2022-06-09T22:00:02Z</time>
      </trkpt>
      <trkpt lat="45.79384" lon="6.63135">
        <ele>1948</ele>
        <time>2022-06-09T22:00:21Z</time>
      </trkpt>
      <trkpt lat="45.79455" lon="6.63035">
        <ele>1962</ele>
        <time>2022-06-09T22:00:44Z</time>
      </trkpt>
      <trkpt lat="45.79438" lon="6.62982">
        <ele>1950</ele>
        <time>2022-06-09T22:00:54Z</time>
      </trkpt>
      <trkpt lat="45.79452" lon="6.62862">
        <ele>1951</ele>
        <time>2022-06-09T22:01:14Z</time>
      </trkpt>
      <trkpt lat="45.79447" lon="6.62818">
        <ele>1946</ele>
        <time>2022-06-09T22:01:21Z</time>
      </trkpt>
      <trkpt lat="45.79491" lon="6.62668">
        <ele>1960</ele>
        <time>2022-06-09T22:01:47Z</time>
      </trkpt>
      <trkpt lat="45.79503" lon="6.62577">
        <ele>1967</ele>
        <time>2022-06-09T22:02:02Z</time>
      </trkpt>
      <trkpt lat="45.79481" lon="6.62496">
        <ele>1972</ele>
        <time>2022-06-09T22:02:17Z</time>
      </trkpt>
      <trkpt lat="45.79445" lon="6.62442">
        <ele>1969</ele>
        <time>2022-06-09T22:02:29Z</time>
      </trkpt>
      <trkpt lat="45.79438" lon="6.62279">
        <ele>1974</ele>
        <time>2022-06-09T22:02:55Z</time>
      </trkpt>
      <trkpt lat="45.79461" lon="6.6221">
        <ele>1981</ele>
        <time>2022-06-09T22:03:08Z</time>
      </trkpt>
      <trkpt lat="45.79469" lon="6.62024">
        <ele>1991</ele>
        <time>2022-06-09T22:03:38Z</time>
      </trkpt>
      <trkpt lat="45.79447" lon="6.61943">
        <ele>1987</ele>
        <time>2022-06-09T22:03:52Z</time>
      </trkpt>
      <trkpt lat="45.79473" lon="6.61841">
        <ele>1987</ele>
        <time>2022-06-09T22:04:10Z</time>
      </trkpt>
      <trkpt lat="45.79554" lon="6.61794">
        <ele>1983</ele>
        <time>2022-06-09T22:04:30Z</time>
      </trkpt>
      <trkpt lat="45.79567" lon="6.61701">
        <ele>1977</ele>
        <time>2022-06-09T22:04:46Z</time>
      </trkpt>
      <trkpt lat="45.79598" lon="6.61622">
        <ele>1974</ele>
        <time>2022-06-09T22:05:01Z</time>
      </trkpt>
      <trkpt lat="45.79631" lon="6.61486">
        <ele>1966</ele>
        <time>2022-06-09T22:05:24Z</time>
      </trkpt>
      <trkpt lat="45.79616" lon="6.61295">
        <ele>1963</ele>
        <time>2022-06-09T22:05:55Z</time>
      </trkpt>
      <trkpt lat="45.79589" lon="6.61108">
        <ele>1959</ele>
        <time>2022-06-09T22:06:26Z</time>
      </trkpt>
      <trkpt lat="45.79555" lon="6.61062">
        <ele>1959</ele>
        <time>2022-06-09T22:06:37Z</time>
      </trkpt>
      <trkpt lat="45.79527" lon="6.60952">
        <ele>1968</ele>
        <time>2022-06-09T22:06:56Z</time>
      </trkpt>
      <trkpt lat="45.79588" lon="6.60405">
        <ele>2027</ele>
        <time>2022-06-09T22:08:27Z</time>
      </trkpt>
      <trkpt lat="45.79476" lon="6.60158">
        <ele>2034</ele>
        <time>2022-06-09T22:09:15Z</time>
      </trkpt>
      <trkpt lat="45.79402" lon="6.60123">
        <ele>2031</ele>
        <time>2022-06-09T22:09:33Z</time>
      </trkpt>
      <trkpt lat="45.79366" lon="6.60126">
        <ele>2035</ele>
        <time>2022-06-09T22:09:41Z</time>
      </trkpt>
      <trkpt lat="45.79246" lon="6.59917">
        <ele>2048</ele>
        <time>2022-06-09T22:10:25Z</time>
      </trkpt>
      <trkpt lat="45.79133" lon="6.59858">
        <ele>2020</ele>
        <time>2022-06-09T22:10:53Z</time>
      </trkpt>
      <trkpt lat="45.79037" lon="6.5982">
        <ele>2010</ele>
        <time>2022-06-09T22:11:17Z</time>
      </trkpt>
      <trkpt lat="45.78925" lon="6.59717">
        <ele>1989</ele>
        <time>2022-06-09T22:11:48Z</time>
      </trkpt>
      <trkpt lat="45.78699" lon="6.59629">
        <ele>2005</ele>
        <time>2022-06-09T22:12:42Z</time>
      </trkpt>
      <trkpt lat="45.78488" lon="6.59552">
        <ele>2021</ele>
        <time>2022-06-09T22:13:33Z</time>
      </trkpt>
      <trkpt lat="45.78438" lon="6.59444">
        <ele>2019</ele>
        <time>2022-06-09T22:13:54Z</time>
      </trkpt>
      <trkpt lat="45.7839" lon="6.59406">
        <ele>2024</ele>
        <time>2022-06-09T22:14:07Z</time>
      </trkpt>
      <trkpt lat="45.78317" lon="6.59324">
        <ele>2025</ele>
        <time>2022-06-09T22:14:29Z</time>
      </trkpt>
      <trkpt lat="45.78252" lon="6.59291">
        <ele>2029</ele>
        <time>2022-06-09T22:14:45Z</time>
      </trkpt>
      <trkpt lat="45.78195" lon="6.59215">
        <ele>2031</ele>
        <time>2022-06-09T22:15:03Z</time>
      </trkpt>
      <trkpt lat="45.78185" lon="6.59188">
        <ele>2034</ele>
        <time>2022-06-09T22:15:08Z</time>
      </trkpt>
      <trkpt lat="45.78164" lon="6.59144">
        <ele>2041</ele>
        <time>2022-06-09T22:15:17Z</time>
      </trkpt>
      <trkpt lat="45.78115" lon="6.58934">
        <ele>2028</ele>
        <time>2022-06-09T22:15:53Z</time>
      </trkpt>
      <trkpt lat="45.78114" lon="6.58675">
        <ele>2005</ele>
        <time>2022-06-09T22:16:35Z</time>
      </trkpt>
      <trkpt lat="45.78092" lon="6.58488">
        <ele>1985</ele>
        <time>2022-06-09T22:17:06Z</time>
      </trkpt>
      <trkpt lat="45.77998" lon="6.58533">
        <ele>1978</ele>
        <time>2022-06-09T22:17:29Z</time>
      </trkpt>
      <trkpt lat="45.77934" lon="6.58675">
        <ele>1969</ele>
        <time>2022-06-09T22:17:57Z</time>
      </trkpt>
      <trkpt lat="45.77901" lon="6.58733">
        <ele>1963</ele>
        <time>2022-06-09T22:18:09Z</time>
      </trkpt>
      <trkpt lat="45.77897" lon="6.59091">
        <ele>1967</ele>
        <time>2022-06-09T22:19:07Z</time>
      </trkpt>
      <trkpt lat="45.77839" lon="6.59027">
        <ele>1951</ele>
        <time>2022-06-09T22:19:24Z</time>
      </trkpt>
      <trkpt lat="45.77762" lon="6.5904">
        <ele>1931</ele>
        <time>2022-06-09T22:19:42Z</time>
      </trkpt>
      <trkpt lat="45.77671" lon="6.59035">
        <ele>1910</ele>
        <time>2022-06-09T22:20:03Z</time>
      </trkpt>
      <trkpt lat="45.77502" lon="6.589">
        <ele>1862</ele>
        <time>2022-06-09T22:20:49Z</time>
      </trkpt>
      <trkpt lat="45.77368" lon="6.58838">
        <ele>1853</ele>
        <time>2022-06-09T22:21:22Z</time>
      </trkpt>
      <trkpt lat="45.77234" lon="6.58734">
        <ele>1851</ele>
        <time>2022-06-09T22:21:57Z</time>
      </trkpt>
      <trkpt lat="45.77171" lon="6.58605">
        <ele>1847</ele>
        <time>2022-06-09T22:22:23Z</time>
      </trkpt>
      <trkpt lat="45.77139" lon="6.58507">
        <ele>1845</ele>
        <time>2022-06-09T22:22:40Z</time>
      </trkpt>
      <trkpt lat="45.77152" lon="6.58445">
        <ele>1839</ele>
        <time>2022-06-09T22:22:51Z</time>
      </trkpt>
      <trkpt lat="45.77223" lon="6.5841">
        <ele>1818</ele>
        <time>2022-06-09T22:23:08Z</time>
      </trkpt>
      <trkpt lat="45.77351" lon="6.58458">
        <ele>1796</ele>
        <time>2022-06-09T22:23:39Z</time>
      </trkpt>
      <trkpt lat="45.77396" lon="6.58397">
        <ele>1789</ele>
        <time>2022-06-09T22:23:54Z</time>
      </trkpt>
      <trkpt lat="45.77367" lon="6.58251">
        <ele>1779</ele>
        <time>2022-06-09T22:24:19Z</time>
      </trkpt>
      <trkpt lat="45.77435" lon="6.58162">
        <ele>1767</ele>
        <time>2022-06-09T22:24:40Z</time>
      </trkpt>
      <trkpt lat="45.7739" lon="6.57991">
        <ele>1779</ele>
        <time>2022-06-09T22:25:10Z</time>
      </trkpt>
      <trkpt lat="45.7734" lon="6.57966">
        <ele>1791</ele>
        <time>2022-06-09T22:25:22Z</time>
      </trkpt>
      <trkpt lat="45.77376" lon="6.57912">
        <ele>1790</ele>
        <time>2022-06-09T22:25:34Z</time>
      </trkpt>
      <trkpt lat="45.77339" lon="6.57861">
        <ele>1807</ele>
        <time>2022-06-09T22:25:46Z</time>
      </trkpt>
      <trkpt lat="45.77371" lon="6.57809">
        <ele>1795</ele>
        <time>2022-06-09T22:25:58Z</time>
      </trkpt>
      <trkpt lat="45.77366" lon="6.57774">
        <ele>1793</ele>
        <time>2022-06-09T22:26:03Z</time>
      </trkpt>
      <trkpt lat="45.77349" lon="6.57757">
        <ele>1799</ele>
        <time>2022-06-09T22:26:08Z</time>
      </trkpt>
      <trkpt lat="45.77264" lon="6.57757">
        <ele>1821</ele>
        <time>2022-06-09T22:26:28Z</time>
      </trkpt>
      <trkpt lat="45.77192" lon="6.57731">
        <ele>1831</ele>
        <time>2022-06-09T22:26:46Z</time>
      </trkpt>
      <trkpt lat="45.77121" lon="6.57555">
        <ele>1825</ele>
        <time>2022-06-09T22:27:19Z</time>
      </trkpt>
      <trkpt lat="45.77089" lon="6.57535">
        <ele>1830</ele>
        <time>2022-06-09T22:27:27Z</time>
      </trkpt>
      <trkpt lat="45.77064" lon="6.57504">
        <ele>1833</ele>
        <time>2022-06-09T22:27:35Z</time>
      </trkpt>
      <trkpt lat="45.77043" lon="6.57455">
        <ele>1836</ele>
        <time>2022-06-09T22:27:44Z</time>
      </trkpt>
      <trkpt lat="45.77022" lon="6.5745">
        <ele>1842</ele>
        <time>2022-06-09T22:27:49Z</time>
      </trkpt>
      <trkpt lat="45.77009" lon="6.5742">
        <ele>1844</ele>
        <time>2022-06-09T22:27:55Z</time>
      </trkpt>
      <trkpt lat="45.77011" lon="6.57395">
        <ele>1844</ele>
        <time>2022-06-09T22:27:59Z</time>
      </trkpt>
      <trkpt lat="45.76982" lon="6.57308">
        <ele>1848</ele>
        <time>2022-06-09T22:28:14Z</time>
      </trkpt>
      <trkpt lat="45.76857" lon="6.57247">
        <ele>1832</ele>
        <time>2022-06-09T22:28:45Z</time>
      </trkpt>
      <trkpt lat="45.76874" lon="6.57244">
        <ele>1831</ele>
        <time>2022-06-09T22:28:49Z</time>
      </trkpt>
      <trkpt lat="45.76853" lon="6.57211">
        <ele>1823</ele>
        <time>2022-06-09T22:28:57Z</time>
      </trkpt>
      <trkpt lat="45.76826" lon="6.57223">
        <ele>1825</ele>
        <time>2022-06-09T22:29:03Z</time>
      </trkpt>
      <trkpt lat="45.76838" lon="6.5717">
        <ele>1814</ele>
        <time>2022-06-09T22:29:12Z</time>
      </trkpt>
      <trkpt lat="45.7686" lon="6.57144">
        <ele>1807</ele>
        <time>2022-06-09T22:29:19Z</time>
      </trkpt>
      <trkpt lat="45.76883" lon="6.5716">
        <ele>1811</ele>
        <time>2022-06-09T22:29:25Z</time>
      </trkpt>
      <trkpt lat="45.76918" lon="6.5714">
        <ele>1806</ele>
        <time>2022-06-09T22:29:34Z</time>
      </trkpt>
      <trkpt lat="45.76891" lon="6.57113">
        <ele>1799</ele>
        <time>2022-06-09T22:29:41Z</time>
      </trkpt>
      <trkpt lat="45.76854" lon="6.57041">
        <ele>1782</ele>
        <time>2022-06-09T22:29:56Z</time>
      </trkpt>
      <trkpt lat="45.7681" lon="6.57027">
        <ele>1776</ele>
        <time>2022-06-09T22:30:06Z</time>
      </trkpt>
      <trkpt lat="45.7676" lon="6.57106">
        <ele>1790</ele>
        <time>2022-06-09T22:30:24Z</time>
      </trkpt>
      <trkpt lat="45.76715" lon="6.5711">
        <ele>1791</ele>
        <time>2022-06-09T22:30:34Z</time>
      </trkpt>
      <trkpt lat="45.76681" lon="6.57062">
        <ele>1780</ele>
        <time>2022-06-09T22:30:45Z</time>
      </trkpt>
      <trkpt lat="45.76598" lon="6.57075">
        <ele>1786</ele>
        <time>2022-06-09T22:31:05Z</time>
      </trkpt>
      <trkpt lat="45.76562" lon="6.57073">
        <ele>1784</ele>
        <time>2022-06-09T22:31:13Z</time>
      </trkpt>
      <trkpt lat="45.76557" lon="6.57056">
        <ele>1781</ele>
        <time>2022-06-09T22:31:16Z</time>
      </trkpt>
      <trkpt lat="45.7652" lon="6.56993">
        <ele>1778</ele>
        <time>2022-06-09T22:31:30Z</time>
      </trkpt>
      <trkpt lat="45.7643" lon="6.56907">
        <ele>1782</ele>
        <time>2022-06-09T22:31:55Z</time>
      </trkpt>
      <trkpt lat="45.76365" lon="6.56835">
        <ele>1792</ele>
        <time>2022-06-09T22:32:14Z</time>
      </trkpt>
      <trkpt lat="45.76351" lon="6.56758">
        <ele>1801</ele>
        <time>2022-06-09T22:32:27Z</time>
      </trkpt>
      <trkpt lat="45.76199" lon="6.5648">
        <ele>1807</ele>
        <time>2022-06-09T22:33:25Z</time>
      </trkpt>
      <trkpt lat="45.76074" lon="6.56403">
        <ele>1796</ele>
        <time>2022-06-09T22:33:57Z</time>
      </trkpt>
      <trkpt lat="45.75999" lon="6.56258">
        <ele>1778</ele>
        <time>2022-06-09T22:34:26Z</time>
      </trkpt>
      <trkpt lat="45.75985" lon="6.56244">
        <ele>1775</ele>
        <time>2022-06-09T22:34:30Z</time>
      </trkpt>
      <trkpt lat="45.75981" lon="6.5621">
        <ele>1773</ele>
        <time>2022-06-09T22:34:36Z</time>
      </trkpt>
      <trkpt lat="45.75968" lon="6.56186">
        <ele>1771</ele>
        <time>2022-06-09T22:34:40Z</time>
      </trkpt>
      <trkpt lat="45.75962" lon="6.56122">
        <ele>1770</ele>
        <time>2022-06-09T22:34:51Z</time>
      </trkpt>
      <trkpt lat="45.75953" lon="6.56106">
        <ele>1771</ele>
        <time>2022-06-09T22:34:54Z</time>
      </trkpt>
      <trkpt lat="45.7594" lon="6.56042">
        <ele>1772</ele>
        <time>2022-06-09T22:35:05Z</time>
      </trkpt>
      <trkpt lat="45.75908" lon="6.55949">
        <ele>1782</ele>
        <time>2022-06-09T22:35:22Z</time>
      </trkpt>
      <trkpt lat="45.75914" lon="6.55911">
        <ele>1782</ele>
        <time>2022-06-09T22:35:28Z</time>
      </trkpt>
      <trkpt lat="45.75906" lon="6.5587">
        <ele>1788</ele>
        <time>2022-06-09T22:35:35Z</time>
      </trkpt>
      <trkpt lat="45.75917" lon="6.55846">
        <ele>1787</ele>
        <time>2022-06-09T22:35:40Z</time>
      </trkpt>
      <trkpt lat="45.75934" lon="6.55759">
        <ele>1791</ele>
        <time>2022-06-09T22:35:55Z</time>
      </trkpt>
      <trkpt lat="45.75941" lon="6.55665">
        <ele>1797</ele>
        <time>2022-06-09T22:36:10Z</time>
      </trkpt>
      <trkpt lat="45.75931" lon="6.55603">
        <ele>1799</ele>
        <time>2022-06-09T22:36:21Z</time>
      </trkpt>
      <trkpt lat="45.75917" lon="6.55555">
        <ele>1801</ele>
        <time>2022-06-09T22:36:29Z</time>
      </trkpt>
      <trkpt lat="45.75917" lon="6.55511">
        <ele>1798</ele>
        <time>2022-06-09T22:36:36Z</time>
      </trkpt>
      <trkpt lat="45.75872" lon="6.55379">
        <ele>1798</ele>
        <time>2022-06-09T22:37:00Z</time>
      </trkpt>
      <trkpt lat="45.75962" lon="6.55318">
        <ele>1792</ele>
        <time>2022-06-09T22:37:23Z</time>
      </trkpt>
      <trkpt lat="45.76002" lon="6.55263">
        <ele>1788</ele>
        <time>2022-06-09T22:37:36Z</time>
      </trkpt>
      <trkpt lat="45.76083" lon="6.55215">
        <ele>1786</ele>
        <time>2022-06-09T22:37:57Z</time>
      </trkpt>
      <trkpt lat="45.76111" lon="6.55114">
        <ele>1786</ele>
        <time>2022-06-09T22:38:15Z</time>
      </trkpt>
      <trkpt lat="45.76147" lon="6.55088">
        <ele>1789</ele>
        <time>2022-06-09T22:38:24Z</time>
      </trkpt>
      <trkpt lat="45.76183" lon="6.55025">
        <ele>1793</ele>
        <time>2022-06-09T22:38:37Z</time>
      </trkpt>
      <trkpt lat="45.76216" lon="6.54937">
        <ele>1798</ele>
        <time>2022-06-09T22:38:53Z</time>
      </trkpt>
      <trkpt lat="45.76259" lon="6.54786">
        <ele>1806</ele>
        <time>2022-06-09T22:39:20Z</time>
      </trkpt>
      <trkpt lat="45.76288" lon="6.54742">
        <ele>1808</ele>
        <time>2022-06-09T22:39:30Z</time>
      </trkpt>
      <trkpt lat="45.76271" lon="6.54724">
        <ele>1806</ele>
        <time>2022-06-09T22:39:35Z</time>
      </trkpt>
      <trkpt lat="45.76268" lon="6.54698">
        <ele>1805</ele>
        <time>2022-06-09T22:39:39Z</time>
      </trkpt>
      <trkpt lat="45.76233" lon="6.54568">
        <ele>1796</ele>
        <time>2022-06-09T22:40:02Z</time>
      </trkpt>
      <trkpt lat="45.76212" lon="6.54553">
        <ele>1795</ele>
        <time>2022-06-09T22:40:07Z</time>
      </trkpt>
      <trkpt lat="45.76197" lon="6.54551">
        <ele>1794</ele>
        <time>2022-06-09T22:40:11Z</time>
      </trkpt>
      <trkpt lat="45.76183" lon="6.54556">
        <ele>1793</ele>
        <time>2022-06-09T22:40:14Z</time>
      </trkpt>
      <trkpt lat="45.76178" lon="6.54511">
        <ele>1791</ele>
        <time>2022-06-09T22:40:22Z</time>
      </trkpt>
      <trkpt lat="45.76149" lon="6.54491">
        <ele>1787</ele>
        <time>2022-06-09T22:40:29Z</time>
      </trkpt>
      <trkpt lat="45.76153" lon="6.54441">
        <ele>1782</ele>
        <time>2022-06-09T22:40:37Z</time>
      </trkpt>
      <trkpt lat="45.76134" lon="6.54441">
        <ele>1780</ele>
        <time>2022-06-09T22:40:42Z</time>
      </trkpt>
      <trkpt lat="45.76146" lon="6.54392">
        <ele>1776</ele>
        <time>2022-06-09T22:40:50Z</time>
      </trkpt>
      <trkpt lat="45.76171" lon="6.54332">
        <ele>1772</ele>
        <time>2022-06-09T22:41:02Z</time>
      </trkpt>
      <trkpt lat="45.76167" lon="6.54284">
        <ele>1767</ele>
        <time>2022-06-09T22:41:09Z</time>
      </trkpt>
      <trkpt lat="45.76151" lon="6.54276">
        <ele>1764</ele>
        <time>2022-06-09T22:41:13Z</time>
      </trkpt>
      <trkpt lat="45.76153" lon="6.54253">
        <ele>1762</ele>
        <time>2022-06-09T22:41:17Z</time>
      </trkpt>
      <trkpt lat="45.76135" lon="6.54235">
        <ele>1758</ele>
        <time>2022-06-09T22:41:22Z</time>
      </trkpt>
      <trkpt lat="45.76139" lon="6.54192">
        <ele>1754</ele>
        <time>2022-06-09T22:41:29Z</time>
      </trkpt>
      <trkpt lat="45.76131" lon="6.54187">
        <ele>1753</ele>
        <time>2022-06-09T22:41:31Z</time>
      </trkpt>
      <trkpt lat="45.76128" lon="6.54119">
        <ele>1745</ele>
        <time>2022-06-09T22:41:43Z</time>
      </trkpt>
      <trkpt lat="45.76108" lon="6.54112">
        <ele>1743</ele>
        <time>2022-06-09T22:41:47Z</time>
      </trkpt>
      <trkpt lat="45.76113" lon="6.54031">
        <ele>1735</ele>
        <time>2022-06-09T22:42:01Z</time>
      </trkpt>
      <trkpt lat="45.76077" lon="6.53998">
        <ele>1731</ele>
        <time>2022-06-09T22:42:11Z</time>
      </trkpt>
      <trkpt lat="45.76101" lon="6.53963">
        <ele>1726</ele>
        <time>2022-06-09T22:42:19Z</time>
      </trkpt>
      <trkpt lat="45.76134" lon="6.53952">
        <ele>1724</ele>
        <time>2022-06-09T22:42:27Z</time>
      </trkpt>
      <trkpt lat="45.76128" lon="6.53922">
        <ele>1719</ele>
        <time>2022-06-09T22:42:32Z</time>
      </trkpt>
      <trkpt lat="45.76095" lon="6.53911">
        <ele>1718</ele>
        <time>2022-06-09T22:42:40Z</time>
      </trkpt>
      <trkpt lat="45.76126" lon="6.53867">
        <ele>1712</ele>
        <time>2022-06-09T22:42:50Z</time>
      </trkpt>
      <trkpt lat="45.76146" lon="6.53781">
        <ele>1705</ele>
        <time>2022-06-09T22:43:04Z</time>
      </trkpt>
      <trkpt lat="45.76146" lon="6.53723">
        <ele>1700</ele>
        <time>2022-06-09T22:43:14Z</time>
      </trkpt>
      <trkpt lat="45.76127" lon="6.53679">
        <ele>1694</ele>
        <time>2022-06-09T22:43:22Z</time>
      </trkpt>
      <trkpt lat="45.76097" lon="6.53685">
        <ele>1691</ele>
        <time>2022-06-09T22:43:29Z</time>
      </trkpt>
      <trkpt lat="45.76084" lon="6.53703">
        <ele>1691</ele>
        <time>2022-06-09T22:43:34Z</time>
      </trkpt>
      <trkpt lat="45.76078" lon="6.53684">
        <ele>1688</ele>
        <time>2022-06-09T22:43:37Z</time>
      </trkpt>
      <trkpt lat="45.76048" lon="6.53685">
        <ele>1684</ele>
        <time>2022-06-09T22:43:44Z</time>
      </trkpt>
      <trkpt lat="45.76073" lon="6.53575">
        <ele>1676</ele>
        <time>2022-06-09T22:44:03Z</time>
      </trkpt>
      <trkpt lat="45.7613" lon="6.53494">
        <ele>1672</ele>
        <time>2022-06-09T22:44:22Z</time>
      </trkpt>
      <trkpt lat="45.76011" lon="6.53501">
        <ele>1664</ele>
        <time>2022-06-09T22:44:49Z</time>
      </trkpt>
      <trkpt lat="45.75993" lon="6.5344">
        <ele>1661</ele>
        <time>2022-06-09T22:45:00Z</time>
      </trkpt>
      <trkpt lat="45.76041" lon="6.53386">
        <ele>1661</ele>
        <time>2022-06-09T22:45:14Z</time>
      </trkpt>
      <trkpt lat="45.76039" lon="6.53356">
        <ele>1660</ele>
        <time>2022-06-09T22:45:19Z</time>
      </trkpt>
      <trkpt lat="45.75936" lon="6.5344">
        <ele>1658</ele>
        <time>2022-06-09T22:45:47Z</time>
      </trkpt>
      <trkpt lat="45.75845" lon="6.53356">
        <ele>1652</ele>
        <time>2022-06-09T22:46:12Z</time>
      </trkpt>
      <trkpt lat="45.75786" lon="6.53346">
        <ele>1645</ele>
        <time>2022-06-09T22:46:26Z</time>
      </trkpt>
      <trkpt lat="45.75769" lon="6.53246">
        <ele>1644</ele>
        <time>2022-06-09T22:46:43Z</time>
      </trkpt>
      <trkpt lat="45.75781" lon="6.53154">
        <ele>1644</ele>
        <time>2022-06-09T22:46:58Z</time>
      </trkpt>
      <trkpt lat="45.75733" lon="6.53198">
        <ele>1638</ele>
        <time>2022-06-09T22:47:12Z</time>
      </trkpt>
      <trkpt lat="45.75715" lon="6.53106">
        <ele>1632</ele>
        <time>2022-06-09T22:47:27Z</time>
      </trkpt>
      <trkpt lat="45.757" lon="6.53091">
        <ele>1630</ele>
        <time>2022-06-09T22:47:31Z</time>
      </trkpt>
      <trkpt lat="45.75667" lon="6.53146">
        <ele>1627</ele>
        <time>2022-06-09T22:47:43Z</time>
      </trkpt>
      <trkpt lat="45.75636" lon="6.53076">
        <ele>1622</ele>
        <time>2022-06-09T22:47:57Z</time>
      </trkpt>
      <trkpt lat="45.75609" lon="6.53064">
        <ele>1620</ele>
        <time>2022-06-09T22:48:03Z</time>
      </trkpt>
      <trkpt lat="45.75573" lon="6.53127">
        <ele>1617</ele>
        <time>2022-06-09T22:48:17Z</time>
      </trkpt>
      <trkpt lat="45.75491" lon="6.53205">
        <ele>1615</ele>
        <time>2022-06-09T22:48:40Z</time>
      </trkpt>
      <trkpt lat="45.75483" lon="6.53239">
        <ele>1614</ele>
        <time>2022-06-09T22:48:45Z</time>
      </trkpt>
      <trkpt lat="45.755" lon="6.53324">
        <ele>1613</ele>
        <time>2022-06-09T22:49:00Z</time>
      </trkpt>
      <trkpt lat="45.75465" lon="6.53322">
        <ele>1614</ele>
        <time>2022-06-09T22:49:08Z</time>
      </trkpt>
      <trkpt lat="45.75463" lon="6.53427">
        <ele>1613</ele>
        <time>2022-06-09T22:49:25Z</time>
      </trkpt>
      <trkpt lat="45.75465" lon="6.53467">
        <ele>1612</ele>
        <time>2022-06-09T22:49:32Z</time>
      </trkpt>
      <trkpt lat="45.75439" lon="6.53449">
        <ele>1612</ele>
        <time>2022-06-09T22:49:38Z</time>
      </trkpt>
      <trkpt lat="45.75262" lon="6.53576">
        <ele>1613</ele>
        <time>2022-06-09T22:50:25Z</time>
      </trkpt>
      <trkpt lat="45.75232" lon="6.53603">
        <ele>1614</ele>
        <time>2022-06-09T22:50:33Z</time>
      </trkpt>
      <trkpt lat="45.75071" lon="6.5371">
        <ele>1621</ele>
        <time>2022-06-09T22:51:14Z</time>
      </trkpt>
      <trkpt lat="45.74976" lon="6.53784">
        <ele>1624</ele>
        <time>2022-06-09T22:51:40Z</time>
      </trkpt>
      <trkpt lat="45.749" lon="6.53783">
        <ele>1635</ele>
        <time>2022-06-09T22:51:57Z</time>
      </trkpt>
      <trkpt lat="45.74847" lon="6.53763">
        <ele>1644</ele>
        <time>2022-06-09T22:52:10Z</time>
      </trkpt>
      <trkpt lat="45.74779" lon="6.53792">
        <ele>1650</ele>
        <time>2022-06-09T22:52:27Z</time>
      </trkpt>
      <trkpt lat="45.74776" lon="6.53731">
        <ele>1654</ele>
        <time>2022-06-09T22:52:37Z</time>
      </trkpt>
      <trkpt lat="45.74745" lon="6.53725">
        <ele>1657</ele>
        <time>2022-06-09T22:52:44Z</time>
      </trkpt>
      <trkpt lat="45.74657" lon="6.53804">
        <ele>1659</ele>
        <time>2022-06-09T22:53:08Z</time>
      </trkpt>
      <trkpt lat="45.74606" lon="6.53807">
        <ele>1660</ele>
        <time>2022-06-09T22:53:20Z</time>
      </trkpt>
      <trkpt lat="45.74557" lon="6.53778">
        <ele>1662</ele>
        <time>2022-06-09T22:53:33Z</time>
      </trkpt>
      <trkpt lat="45.74654" lon="6.53575">
        <ele>1676</ele>
        <time>2022-06-09T22:54:13Z</time>
      </trkpt>
      <trkpt lat="45.7472" lon="6.53512">
        <ele>1677</ele>
        <time>2022-06-09T22:54:31Z</time>
      </trkpt>
      <trkpt lat="45.74642" lon="6.53489">
        <ele>1679</ele>
        <time>2022-06-09T22:54:50Z</time>
      </trkpt>
      <trkpt lat="45.74608" lon="6.53226">
        <ele>1688</ele>
        <time>2022-06-09T22:55:33Z</time>
      </trkpt>
      <trkpt lat="45.74654" lon="6.53029">
        <ele>1708</ele>
        <time>2022-06-09T22:56:07Z</time>
      </trkpt>
      <trkpt lat="45.74659" lon="6.52917">
        <ele>1725</ele>
        <time>2022-06-09T22:56:25Z</time>
      </trkpt>
      <trkpt lat="45.74629" lon="6.52792">
        <ele>1720</ele>
        <time>2022-06-09T22:56:47Z</time>
      </trkpt>
      <trkpt lat="45.74671" lon="6.52817">
        <ele>1733</ele>
        <time>2022-06-09T22:56:58Z</time>
      </trkpt>
      <trkpt lat="45.74697" lon="6.52737">
        <ele>1735</ele>
        <time>2022-06-09T22:57:12Z</time>
      </trkpt>
      <trkpt lat="45.74731" lon="6.52699">
        <ele>1743</ele>
        <time>2022-06-09T22:57:22Z</time>
      </trkpt>
      <trkpt lat="45.74701" lon="6.52531">
        <ele>1739</ele>
        <time>2022-06-09T22:57:50Z</time>
      </trkpt>
      <trkpt lat="45.74836" lon="6.52149">
        <ele>1792</ele>
        <time>2022-06-09T22:59:00Z</time>
      </trkpt>
      <trkpt lat="45.74832" lon="6.52024">
        <ele>1797</ele>
        <time>2022-06-09T22:59:21Z</time>
      </trkpt>
      <trkpt lat="45.74864" lon="6.51917">
        <ele>1803</ele>
        <time>2022-06-09T22:59:39Z</time>
      </trkpt>
      <trkpt lat="45.74872" lon="6.51866">
        <ele>1810</ele>
        <time>2022-06-09T22:59:48Z</time>
      </trkpt>
      <trkpt lat="45.74946" lon="6.51759">
        <ele>1823</ele>
        <time>2022-06-09T23:00:13Z</time>
      </trkpt>
      <trkpt lat="45.74906" lon="6.51667">
        <ele>1832</ele>
        <time>2022-06-09T23:00:30Z</time>
      </trkpt>
      <trkpt lat="45.74903" lon="6.51554">
        <ele>1845</ele>
        <time>2022-06-09T23:00:49Z</time>
      </trkpt>
      <trkpt lat="45.74977" lon="6.51322">
        <ele>1857.6</ele>
        <time>2022-06-09T23:01:28Z</time>
      </trkpt>
      <trkpt lat="45.74992" lon="6.51279">
        <ele>1860.7</ele>
        <time>2022-06-09T23:01:44Z</time>
      </trkpt>
      <trkpt lat="45.75035" lon="6.5126">
        <ele>1860.8</ele>
        <time>2022-06-09T23:02:04Z</time>
      </trkpt>
      <trkpt lat="45.75055" lon="6.51208">
        <ele>1864.6</ele>
      </trkpt>
      <trkpt lat="45.75035" lon="6.51107">
        <ele>1871.5</ele>
        <time>2022-06-09T23:02:32Z</time>
      </trkpt>
      <trkpt lat="45.75043" lon="6.51039">
        <ele>1868.4</ele>
        <time>2022-06-09T23:02:55Z</time>
      </trkpt>
      <trkpt lat="45.7502" lon="6.50886">
        <ele>1866.6</ele>
        <time>2022-06-09T23:03:16Z</time>
      </trkpt>
      <trkpt lat="45.75056" lon="6.50848">
        <ele>1863.9</ele>
        <time>2022-06-09T23:03:28Z</time>
      </trkpt>
      <trkpt lat="45.75038" lon="6.5077">
        <ele>1867.4</ele>
        <time>2022-06-09T23:03:38Z</time>
      </trkpt>
      <trkpt lat="45.75002" lon="6.50633">
        <ele>1867.5</ele>
        <time>2022-06-09T23:03:44Z</time>
      </trkpt>
      <trkpt lat="45.74921" lon="6.50554">
        <ele>1869.1</ele>
        <time>2022-06-09T23:04:06Z</time>
      </trkpt>
      <trkpt lat="45.74894" lon="6.50451">
        <ele>1868.4</ele>
        <time>2022-06-09T23:04:30Z</time>
      </trkpt>
      <trkpt lat="45.74818" lon="6.50343">
        <ele>1875.2</ele>
        <time>2022-06-09T23:04:41Z</time>
      </trkpt>
      <trkpt lat="45.74815" lon="6.5029">
        <ele>1871</ele>
        <time>2022-06-09T23:04:48Z</time>
      </trkpt>
      <trkpt lat="45.74775" lon="6.50283">
        <ele>1878.3</ele>
      </trkpt>
      <trkpt lat="45.74751" lon="6.50213">
        <ele>1877.9</ele>
      </trkpt>
      <trkpt lat="45.74658" lon="6.50159">
        <ele>1871.3</ele>
      </trkpt>
      <trkpt lat="45.7461" lon="6.50125">
        <ele>1867.9</ele>
      </trkpt>
      <trkpt lat="45.74537" lon="6.50125">
        <ele>1863.8</ele>
      </trkpt>
      <trkpt lat="45.74514" lon="6.50084">
        <ele>1856.5</ele>
      </trkpt>
      <trkpt lat="45.74467" lon="6.50085">
        <ele>1856</ele>
        <time>2022-06-09T23:05:36Z</time>
      </trkpt>
      <trkpt lat="45.74405" lon="6.49873">
        <ele>1840</ele>
        <time>2022-06-09T23:06:13Z</time>
      </trkpt>
      <trkpt lat="45.74419" lon="6.4976">
        <ele>1828</ele>
        <time>2022-06-09T23:06:32Z</time>
      </trkpt>
      <trkpt lat="45.74366" lon="6.49678">
        <ele>1826</ele>
        <time>2022-06-09T23:06:50Z</time>
      </trkpt>
      <trkpt lat="45.74341" lon="6.49598">
        <ele>1822</ele>
        <time>2022-06-09T23:07:05Z</time>
      </trkpt>
      <trkpt lat="45.74336" lon="6.49531">
        <ele>1816</ele>
        <time>2022-06-09T23:07:16Z</time>
      </trkpt>
      <trkpt lat="45.74261" lon="6.49445">
        <ele>1811</ele>
        <time>2022-06-09T23:07:38Z</time>
      </trkpt>
      <trkpt lat="45.74252" lon="6.49372">
        <ele>1804</ele>
        <time>2022-06-09T23:07:50Z</time>
      </trkpt>
      <trkpt lat="45.74182" lon="6.49238">
        <ele>1793</ele>
        <time>2022-06-09T23:08:17Z</time>
      </trkpt>
      <trkpt lat="45.74151" lon="6.49253">
        <ele>1798</ele>
        <time>2022-06-09T23:08:25Z</time>
      </trkpt>
      <trkpt lat="45.74132" lon="6.49237">
        <ele>1795</ele>
        <time>2022-06-09T23:08:30Z</time>
      </trkpt>
      <trkpt lat="45.74135" lon="6.49159">
        <ele>1783</ele>
        <time>2022-06-09T23:08:43Z</time>
      </trkpt>
      <trkpt lat="45.74086" lon="6.49113">
        <ele>1790</ele>
        <time>2022-06-09T23:08:57Z</time>
      </trkpt>
      <trkpt lat="45.7403" lon="6.49027">
        <ele>1791</ele>
        <time>2022-06-09T23:09:16Z</time>
      </trkpt>
      <trkpt lat="45.73975" lon="6.48935">
        <ele>1795</ele>
        <time>2022-06-09T23:09:35Z</time>
      </trkpt>
      <trkpt lat="45.73958" lon="6.48848">
        <ele>1790</ele>
        <time>2022-06-09T23:09:50Z</time>
      </trkpt>
      <trkpt lat="45.73851" lon="6.48809">
        <ele>1786</ele>
        <time>2022-06-09T23:10:16Z</time>
      </trkpt>
      <trkpt lat="45.73848" lon="6.48806">
        <ele>1779.5</ele>
        <time>2022-06-09T23:10:18Z</time>
      </trkpt>
      <trkpt lat="45.73844" lon="6.4882">
        <ele>1786</ele>
        <time>2022-06-09T23:10:22Z</time>
      </trkpt>
      <trkpt lat="45.73784" lon="6.48806">
        <ele>1784</ele>
        <time>2022-06-09T23:10:36Z</time>
      </trkpt>
      <trkpt lat="45.73766" lon="6.48812">
        <ele>1783</ele>
        <time>2022-06-09T23:10:40Z</time>
      </trkpt>
      <trkpt lat="45.73739" lon="6.48791">
        <ele>1786</ele>
        <time>2022-06-09T23:10:47Z</time>
      </trkpt>
      <trkpt lat="45.73742" lon="6.48739">
        <ele>1796</ele>
        <time>2022-06-09T23:10:56Z</time>
      </trkpt>
      <trkpt lat="45.73728" lon="6.48724">
        <ele>1799</ele>
        <time>2022-06-09T23:11:00Z</time>
      </trkpt>
      <trkpt lat="45.73688" lon="6.48728">
        <ele>1796</ele>
        <time>2022-06-09T23:11:09Z</time>
      </trkpt>
      <trkpt lat="45.73661" lon="6.48685">
        <ele>1798</ele>
        <time>2022-06-09T23:11:19Z</time>
      </trkpt>
      <trkpt lat="45.73658" lon="6.48614">
        <ele>1791</ele>
        <time>2022-06-09T23:11:30Z</time>
      </trkpt>
      <trkpt lat="45.73611" lon="6.48733">
        <ele>1772</ele>
        <time>2022-06-09T23:11:53Z</time>
      </trkpt>
      <trkpt lat="45.73615" lon="6.48763">
        <ele>1770</ele>
        <time>2022-06-09T23:11:58Z</time>
      </trkpt>
      <trkpt lat="45.73586" lon="6.48743">
        <ele>1763</ele>
        <time>2022-06-09T23:12:05Z</time>
      </trkpt>
      <trkpt lat="45.73571" lon="6.48741">
        <ele>1756</ele>
        <time>2022-06-09T23:12:09Z</time>
      </trkpt>
      <trkpt lat="45.73552" lon="6.48699">
        <ele>1743</ele>
        <time>2022-06-09T23:12:17Z</time>
      </trkpt>
      <trkpt lat="45.73571" lon="6.48639">
        <ele>1744</ele>
        <time>2022-06-09T23:12:28Z</time>
      </trkpt>
      <trkpt lat="45.73581" lon="6.48492">
        <ele>1718</ele>
        <time>2022-06-09T23:12:52Z</time>
      </trkpt>
      <trkpt lat="45.73603" lon="6.48363">
        <ele>1701</ele>
        <time>2022-06-09T23:13:13Z</time>
      </trkpt>
      <trkpt lat="45.7357" lon="6.48402">
        <ele>1683</ele>
        <time>2022-06-09T23:13:23Z</time>
      </trkpt>
      <trkpt lat="45.73578" lon="6.48348">
        <ele>1679</ele>
        <time>2022-06-09T23:13:32Z</time>
      </trkpt>
      <trkpt lat="45.7357" lon="6.48345">
        <ele>1672</ele>
        <time>2022-06-09T23:13:34Z</time>
      </trkpt>
      <trkpt lat="45.73569" lon="6.48322">
        <ele>1668</ele>
        <time>2022-06-09T23:13:38Z</time>
      </trkpt>
      <trkpt lat="45.73559" lon="6.48331">
        <ele>1661</ele>
        <time>2022-06-09T23:13:41Z</time>
      </trkpt>
      <trkpt lat="45.73546" lon="6.4825">
        <ele>1642</ele>
        <time>2022-06-09T23:13:54Z</time>
      </trkpt>
      <trkpt lat="45.73561" lon="6.48194">
        <ele>1644</ele>
        <time>2022-06-09T23:14:04Z</time>
      </trkpt>
      <trkpt lat="45.73544" lon="6.48185">
        <ele>1629</ele>
        <time>2022-06-09T23:14:08Z</time>
      </trkpt>
      <trkpt lat="45.73537" lon="6.48141">
        <ele>1615</ele>
        <time>2022-06-09T23:14:16Z</time>
      </trkpt>
      <trkpt lat="45.73546" lon="6.47919">
        <ele>1582</ele>
        <time>2022-06-09T23:14:52Z</time>
      </trkpt>
      <trkpt lat="45.73555" lon="6.47858">
        <ele>1581</ele>
        <time>2022-06-09T23:15:02Z</time>
      </trkpt>
      <trkpt lat="45.73556" lon="6.47815">
        <ele>1578</ele>
        <time>2022-06-09T23:15:09Z</time>
      </trkpt>
      <trkpt lat="45.73549" lon="6.47785">
        <ele>1574</ele>
        <time>2022-06-09T23:15:14Z</time>
      </trkpt>
      <trkpt lat="45.73536" lon="6.47779">
        <ele>1568</ele>
        <time>2022-06-09T23:15:17Z</time>
      </trkpt>
      <trkpt lat="45.73552" lon="6.47663">
        <ele>1578</ele>
        <time>2022-06-09T23:15:37Z</time>
      </trkpt>
      <trkpt lat="45.73537" lon="6.47576">
        <ele>1580</ele>
        <time>2022-06-09T23:15:51Z</time>
      </trkpt>
      <trkpt lat="45.73552" lon="6.47437">
        <ele>1586</ele>
        <time>2022-06-09T23:16:14Z</time>
      </trkpt>
      <trkpt lat="45.73527" lon="6.47363">
        <ele>1591</ele>
        <time>2022-06-09T23:16:28Z</time>
      </trkpt>
      <trkpt lat="45.73556" lon="6.47297">
        <ele>1596</ele>
        <time>2022-06-09T23:16:40Z</time>
      </trkpt>
      <trkpt lat="45.73594" lon="6.47286">
        <ele>1597</ele>
        <time>2022-06-09T23:16:49Z</time>
      </trkpt>
      <trkpt lat="45.73646" lon="6.47092">
        <ele>1589</ele>
        <time>2022-06-09T23:17:23Z</time>
      </trkpt>
      <trkpt lat="45.73641" lon="6.47025">
        <ele>1582</ele>
        <time>2022-06-09T23:17:34Z</time>
      </trkpt>
      <trkpt lat="45.73653" lon="6.46949">
        <ele>1569</ele>
        <time>2022-06-09T23:17:47Z</time>
      </trkpt>
      <trkpt lat="45.73652" lon="6.46875">
        <ele>1552</ele>
        <time>2022-06-09T23:17:59Z</time>
      </trkpt>
      <trkpt lat="45.73663" lon="6.46748">
        <ele>1521</ele>
        <time>2022-06-09T23:18:20Z</time>
      </trkpt>
      <trkpt lat="45.7365" lon="6.46675">
        <ele>1502</ele>
        <time>2022-06-09T23:18:32Z</time>
      </trkpt>
      <trkpt lat="45.73664" lon="6.46633">
        <ele>1498</ele>
        <time>2022-06-09T23:18:40Z</time>
      </trkpt>
      <trkpt lat="45.73659" lon="6.46591">
        <ele>1490</ele>
        <time>2022-06-09T23:18:47Z</time>
      </trkpt>
      <trkpt lat="45.73665" lon="6.46524">
        <ele>1481</ele>
        <time>2022-06-09T23:18:58Z</time>
      </trkpt>
      <trkpt lat="45.73665" lon="6.46468">
        <ele>1472</ele>
        <time>2022-06-09T23:19:07Z</time>
      </trkpt>
      <trkpt lat="45.73677" lon="6.46307">
        <ele>1442</ele>
        <time>2022-06-09T23:19:33Z</time>
      </trkpt>
      <trkpt lat="45.73685" lon="6.46157">
        <ele>1407</ele>
        <time>2022-06-09T23:19:58Z</time>
      </trkpt>
      <trkpt lat="45.73662" lon="6.46032">
        <ele>1390</ele>
        <time>2022-06-09T23:20:19Z</time>
      </trkpt>
      <trkpt lat="45.73611" lon="6.45869">
        <ele>1362</ele>
        <time>2022-06-09T23:20:48Z</time>
      </trkpt>
      <trkpt lat="45.73611" lon="6.45453">
        <ele>1331</ele>
        <time>2022-06-09T23:21:56Z</time>
      </trkpt>
      <trkpt lat="45.73572" lon="6.45312">
        <ele>1319</ele>
        <time>2022-06-09T23:22:20Z</time>
      </trkpt>
      <trkpt lat="45.73527" lon="6.45303">
        <ele>1314</ele>
        <time>2022-06-09T23:22:31Z</time>
      </trkpt>
      <trkpt lat="45.73532" lon="6.454">
        <ele>1316</ele>
        <time>2022-06-09T23:22:47Z</time>
      </trkpt>
      <trkpt lat="45.73516" lon="6.45459">
        <ele>1312</ele>
        <time>2022-06-09T23:22:57Z</time>
      </trkpt>
      <trkpt lat="45.73491" lon="6.45475">
        <ele>1304</ele>
        <time>2022-06-09T23:23:04Z</time>
      </trkpt>
      <trkpt lat="45.73447" lon="6.45607">
        <ele>1289</ele>
        <time>2022-06-09T23:23:27Z</time>
      </trkpt>
      <trkpt lat="45.73454" lon="6.45682">
        <ele>1295</ele>
        <time>2022-06-09T23:23:40Z</time>
      </trkpt>
      <trkpt lat="45.73453" lon="6.45773">
        <ele>1302</ele>
        <time>2022-06-09T23:23:55Z</time>
      </trkpt>
      <trkpt lat="45.73428" lon="6.45862">
        <ele>1298</ele>
        <time>2022-06-09T23:24:10Z</time>
      </trkpt>
      <trkpt lat="45.73441" lon="6.45915">
        <ele>1306</ele>
        <time>2022-06-09T23:24:19Z</time>
      </trkpt>
      <trkpt lat="45.73442" lon="6.45991">
        <ele>1309</ele>
        <time>2022-06-09T23:24:32Z</time>
      </trkpt>
      <trkpt lat="45.73413" lon="6.46067">
        <ele>1294</ele>
        <time>2022-06-09T23:24:46Z</time>
      </trkpt>
      <trkpt lat="45.73394" lon="6.46011">
        <ele>1284</ele>
        <time>2022-06-09T23:24:56Z</time>
      </trkpt>
      <trkpt lat="45.73387" lon="6.46055">
        <ele>1278</ele>
        <time>2022-06-09T23:25:03Z</time>
      </trkpt>
      <trkpt lat="45.73318" lon="6.45767">
        <ele>1235</ele>
        <time>2022-06-09T23:25:53Z</time>
      </trkpt>
      <trkpt lat="45.733" lon="6.45659">
        <ele>1219</ele>
        <time>2022-06-09T23:26:11Z</time>
      </trkpt>
      <trkpt lat="45.73283" lon="6.45595">
        <ele>1212</ele>
        <time>2022-06-09T23:26:22Z</time>
      </trkpt>
      <trkpt lat="45.73089" lon="6.45374">
        <ele>1148</ele>
        <time>2022-06-09T23:27:20Z</time>
      </trkpt>
      <trkpt lat="45.73077" lon="6.45261">
        <ele>1141</ele>
        <time>2022-06-09T23:27:39Z</time>
      </trkpt>
      <trkpt lat="45.73048" lon="6.45175">
        <ele>1133</ele>
        <time>2022-06-09T23:27:54Z</time>
      </trkpt>
      <trkpt lat="45.72993" lon="6.45121">
        <ele>1120</ele>
        <time>2022-06-09T23:28:10Z</time>
      </trkpt>
      <trkpt lat="45.72913" lon="6.45102">
        <ele>1091</ele>
        <time>2022-06-09T23:28:29Z</time>
      </trkpt>
      <trkpt lat="45.72877" lon="6.4507">
        <ele>1085</ele>
        <time>2022-06-09T23:28:39Z</time>
      </trkpt>
      <trkpt lat="45.728" lon="6.45031">
        <ele>1058</ele>
        <time>2022-06-09T23:28:58Z</time>
      </trkpt>
      <trkpt lat="45.72721" lon="6.44902">
        <ele>1026</ele>
        <time>2022-06-09T23:29:26Z</time>
      </trkpt>
      <trkpt lat="45.7265" lon="6.44879">
        <ele>989</ele>
        <time>2022-06-09T23:29:43Z</time>
      </trkpt>
      <trkpt lat="45.7258" lon="6.44897">
        <ele>954</ele>
        <time>2022-06-09T23:29:59Z</time>
      </trkpt>
      <trkpt lat="45.72416" lon="6.44809">
        <ele>899</ele>
        <time>2022-06-09T23:30:40Z</time>
      </trkpt>
      <trkpt lat="45.72427" lon="6.44847">
        <ele>902</ele>
        <time>2022-06-09T23:30:47Z</time>
      </trkpt>
      <trkpt lat="45.72384" lon="6.44806">
        <ele>890</ele>
        <time>2022-06-09T23:30:59Z</time>
      </trkpt>
      <trkpt lat="45.7233" lon="6.44806">
        <ele>876</ele>
        <time>2022-06-09T23:31:12Z</time>
      </trkpt>
      <trkpt lat="45.72211" lon="6.44688">
        <ele>823</ele>
        <time>2022-06-09T23:31:45Z</time>
      </trkpt>
      <trkpt lat="45.72223" lon="6.44797">
        <ele>823</ele>
        <time>2022-06-09T23:32:03Z</time>
      </trkpt>
      <trkpt lat="45.7228" lon="6.44887">
        <ele>825</ele>
        <time>2022-06-09T23:32:23Z</time>
      </trkpt>
      <trkpt lat="45.72351" lon="6.45106">
        <ele>804</ele>
        <time>2022-06-09T23:33:03Z</time>
      </trkpt>
      <trkpt lat="45.72333" lon="6.452">
        <ele>789</ele>
        <time>2022-06-09T23:33:19Z</time>
      </trkpt>
      <trkpt lat="45.72288" lon="6.45181">
        <ele>775</ele>
        <time>2022-06-09T23:33:29Z</time>
      </trkpt>
      <trkpt lat="45.72267" lon="6.45183">
        <ele>769</ele>
        <time>2022-06-09T23:33:34Z</time>
      </trkpt>
      <trkpt lat="45.72247" lon="6.4515">
        <ele>766</ele>
        <time>2022-06-09T23:33:42Z</time>
      </trkpt>
      <trkpt lat="45.72232" lon="6.45146">
        <ele>759</ele>
        <time>2022-06-09T23:33:45Z</time>
      </trkpt>
      <trkpt lat="45.7222" lon="6.45196">
        <ele>750</ele>
        <time>2022-06-09T23:33:54Z</time>
      </trkpt>
      <trkpt lat="45.7222" lon="6.45225">
        <ele>747</ele>
        <time>2022-06-09T23:33:58Z</time>
      </trkpt>
      <trkpt lat="45.72208" lon="6.45255">
        <ele>738</ele>
        <time>2022-06-09T23:34:04Z</time>
      </trkpt>
      <trkpt lat="45.72194" lon="6.4525">
        <ele>732</ele>
        <time>2022-06-09T23:34:07Z</time>
      </trkpt>
      <trkpt lat="45.72191" lon="6.45282">
        <ele>724</ele>
        <time>2022-06-09T23:34:13Z</time>
      </trkpt>
      <trkpt lat="45.72217" lon="6.45364">
        <ele>725</ele>
        <time>2022-06-09T23:34:27Z</time>
      </trkpt>
      <trkpt lat="45.7217" lon="6.45285">
        <ele>712</ele>
        <time>2022-06-09T23:34:44Z</time>
      </trkpt>
      <trkpt lat="45.72135" lon="6.45285">
        <ele>694</ele>
        <time>2022-06-09T23:34:53Z</time>
      </trkpt>
      <trkpt lat="45.72094" lon="6.4524">
        <ele>682</ele>
        <time>2022-06-09T23:35:05Z</time>
      </trkpt>
      <trkpt lat="45.72107" lon="6.45268">
        <ele>683</ele>
        <time>2022-06-09T23:35:10Z</time>
      </trkpt>
      <trkpt lat="45.72075" lon="6.45422">
        <ele>640</ele>
        <time>2022-06-09T23:35:36Z</time>
      </trkpt>
      <trkpt lat="45.72087" lon="6.45503">
        <ele>646</ele>
        <time>2022-06-09T23:35:50Z</time>
      </trkpt>
      <trkpt lat="45.7208" lon="6.45568">
        <ele>638</ele>
        <time>2022-06-09T23:36:00Z</time>
      </trkpt>
      <trkpt lat="45.72092" lon="6.45677">
        <ele>632</ele>
        <time>2022-06-09T23:36:18Z</time>
      </trkpt>
      <trkpt lat="45.72062" lon="6.45709">
        <ele>616</ele>
        <time>2022-06-09T23:36:27Z</time>
      </trkpt>
      <trkpt lat="45.72048" lon="6.4569">
        <ele>611</ele>
        <time>2022-06-09T23:36:32Z</time>
      </trkpt>
      <trkpt lat="45.72046" lon="6.45644">
        <ele>613</ele>
        <time>2022-06-09T23:36:39Z</time>
      </trkpt>
      <trkpt lat="45.72022" lon="6.45577">
        <ele>604</ele>
        <time>2022-06-09T23:36:51Z</time>
      </trkpt>
      <trkpt lat="45.72003" lon="6.45647">
        <ele>593</ele>
        <time>2022-06-09T23:37:04Z</time>
      </trkpt>
      <trkpt lat="45.72002" lon="6.45741">
        <ele>588</ele>
        <time>2022-06-09T23:37:19Z</time>
      </trkpt>
      <trkpt lat="45.72013" lon="6.45813">
        <ele>590</ele>
        <time>2022-06-09T23:37:31Z</time>
      </trkpt>
      <trkpt lat="45.72012" lon="6.45829">
        <ele>580</ele>
        <time>2022-06-09T23:37:53Z</time>
      </trkpt>
      <trkpt lat="45.71994" lon="6.45831">
        <ele>577.3</ele>
        <time>2022-06-09T23:38:03Z</time>
      </trkpt>
      <trkpt lat="45.71976" lon="6.45828">
        <ele>574.7</ele>
        <time>2022-06-09T23:38:07Z</time>
      </trkpt>
      <trkpt lat="45.7196" lon="6.45829">
        <ele>572.2</ele>
        <time>2022-06-09T23:38:10Z</time>
      </trkpt>
      <trkpt lat="45.71952" lon="6.45834">
        <ele>571.1</ele>
        <time>2022-06-09T23:38:16Z</time>
      </trkpt>
      <trkpt lat="45.71937" lon="6.45839">
        <ele>569</ele>
        <time>2022-06-09T23:38:22Z</time>
      </trkpt>
      <trkpt lat="45.71892" lon="6.4586">
        <ele>562.4</ele>
        <time>2022-06-09T23:38:33Z</time>
      </trkpt>
      <trkpt lat="45.71818" lon="6.45904">
        <ele>551.6</ele>
      </trkpt>
      <trkpt lat="45.71747" lon="6.45932">
        <ele>541.6</ele>
        <time>2022-06-09T23:39:09Z</time>
      </trkpt>
      <trkpt lat="45.71716" lon="6.45952">
        <ele>541</ele>
        <time>2022-06-09T23:39:12Z</time>
      </trkpt>
      <trkpt lat="45.7167" lon="6.46043">
        <ele>540.6</ele>
        <time>2022-06-09T23:39:31Z</time>
      </trkpt>
      <trkpt lat="45.7163" lon="6.46037">
        <ele>537.1</ele>
      </trkpt>
      <trkpt lat="45.71595" lon="6.46014">
        <ele>556</ele>
        <time>2022-06-09T23:39:49Z</time>
      </trkpt>
      <trkpt lat="45.7163" lon="6.45958">
        <ele>538.1</ele>
        <time>2022-06-09T23:40:01Z</time>
      </trkpt>
      <trkpt lat="45.71606" lon="6.45871">
        <ele>535.1</ele>
      </trkpt>
      <trkpt lat="45.71559" lon="6.45797">
        <ele>563</ele>
        <time>2022-06-09T23:40:32Z</time>
      </trkpt>
      <trkpt lat="45.71534" lon="6.45659">
        <ele>582</ele>
        <time>2022-06-09T23:40:55Z</time>
      </trkpt>
      <trkpt lat="45.71544" lon="6.45472">
        <ele>597</ele>
        <time>2022-06-09T23:41:26Z</time>
      </trkpt>
      <trkpt lat="45.71497" lon="6.45227">
        <ele>661</ele>
        <time>2022-06-09T23:42:07Z</time>
      </trkpt>
      <trkpt lat="45.71504" lon="6.45079">
        <ele>682</ele>
        <time>2022-06-09T23:42:31Z</time>
      </trkpt>
      <trkpt lat="45.71484" lon="6.45066">
        <ele>689</ele>
        <time>2022-06-09T23:42:36Z</time>
      </trkpt>
      <trkpt lat="45.7146" lon="6.45104">
        <ele>700</ele>
        <time>2022-06-09T23:42:45Z</time>
      </trkpt>
      <trkpt lat="45.71469" lon="6.45038">
        <ele>692</ele>
        <time>2022-06-09T23:42:56Z</time>
      </trkpt>
      <trkpt lat="45.7144" lon="6.45034">
        <ele>703</ele>
        <time>2022-06-09T23:43:03Z</time>
      </trkpt>
      <trkpt lat="45.71414" lon="6.45149">
        <ele>720</ele>
        <time>2022-06-09T23:43:22Z</time>
      </trkpt>
      <trkpt lat="45.71357" lon="6.45308">
        <ele>744</ele>
        <time>2022-06-09T23:43:51Z</time>
      </trkpt>
      <trkpt lat="45.71378" lon="6.45162">
        <ele>740</ele>
        <time>2022-06-09T23:44:16Z</time>
      </trkpt>
      <trkpt lat="45.71316" lon="6.4504">
        <ele>750</ele>
        <time>2022-06-09T23:44:40Z</time>
      </trkpt>
      <trkpt lat="45.71344" lon="6.45155">
        <ele>757</ele>
        <time>2022-06-09T23:45:00Z</time>
      </trkpt>
      <trkpt lat="45.71262" lon="6.4544">
        <ele>788</ele>
        <time>2022-06-09T23:45:50Z</time>
      </trkpt>
      <trkpt lat="45.71202" lon="6.45537">
        <ele>806</ele>
        <time>2022-06-09T23:46:12Z</time>
      </trkpt>
      <trkpt lat="45.71159" lon="6.45833">
        <ele>821</ele>
        <time>2022-06-09T23:47:01Z</time>
      </trkpt>
      <trkpt lat="45.71147" lon="6.45979">
        <ele>828</ele>
        <time>2022-06-09T23:47:25Z</time>
      </trkpt>
      <trkpt lat="45.71086" lon="6.46165">
        <ele>844</ele>
        <time>2022-06-09T23:47:58Z</time>
      </trkpt>
      <trkpt lat="45.71066" lon="6.46257">
        <ele>848</ele>
        <time>2022-06-09T23:48:14Z</time>
      </trkpt>
      <trkpt lat="45.71036" lon="6.46307">
        <ele>854</ele>
        <time>2022-06-09T23:48:25Z</time>
      </trkpt>
      <trkpt lat="45.71028" lon="6.46393">
        <ele>849</ele>
        <time>2022-06-09T23:48:39Z</time>
      </trkpt>
      <trkpt lat="45.70982" lon="6.46458">
        <ele>855</ele>
        <time>2022-06-09T23:48:54Z</time>
      </trkpt>
      <trkpt lat="45.70979" lon="6.46532">
        <ele>847</ele>
        <time>2022-06-09T23:49:06Z</time>
      </trkpt>
      <trkpt lat="45.70938" lon="6.46571">
        <ele>851</ele>
        <time>2022-06-09T23:49:18Z</time>
      </trkpt>
      <trkpt lat="45.70896" lon="6.46662">
        <ele>848</ele>
        <time>2022-06-09T23:49:35Z</time>
      </trkpt>
      <trkpt lat="45.70836" lon="6.46723">
        <ele>854</ele>
        <time>2022-06-09T23:49:53Z</time>
      </trkpt>
      <trkpt lat="45.70786" lon="6.46754">
        <ele>868</ele>
        <time>2022-06-09T23:50:05Z</time>
      </trkpt>
      <trkpt lat="45.70732" lon="6.46846">
        <ele>870</ele>
        <time>2022-06-09T23:50:25Z</time>
      </trkpt>
      <trkpt lat="45.70686" lon="6.46893">
        <ele>889</ele>
        <time>2022-06-09T23:50:38Z</time>
      </trkpt>
      <trkpt lat="45.70674" lon="6.46942">
        <ele>892</ele>
        <time>2022-06-09T23:50:47Z</time>
      </trkpt>
      <trkpt lat="45.7066" lon="6.46963">
        <ele>898</ele>
        <time>2022-06-09T23:50:51Z</time>
      </trkpt>
      <trkpt lat="45.70674" lon="6.47051">
        <ele>889</ele>
        <time>2022-06-09T23:51:06Z</time>
      </trkpt>
      <trkpt lat="45.70661" lon="6.4707">
        <ele>894</ele>
        <time>2022-06-09T23:51:10Z</time>
      </trkpt>
      <trkpt lat="45.70651" lon="6.47041">
        <ele>899</ele>
        <time>2022-06-09T23:51:16Z</time>
      </trkpt>
      <trkpt lat="45.70639" lon="6.46967">
        <ele>908</ele>
        <time>2022-06-09T23:51:28Z</time>
      </trkpt>
      <trkpt lat="45.70635" lon="6.46898">
        <ele>914</ele>
        <time>2022-06-09T23:51:39Z</time>
      </trkpt>
      <trkpt lat="45.70696" lon="6.46759">
        <ele>903</ele>
        <time>2022-06-09T23:52:06Z</time>
      </trkpt>
      <trkpt lat="45.70717" lon="6.467">
        <ele>904</ele>
        <time>2022-06-09T23:52:17Z</time>
      </trkpt>
      <trkpt lat="45.70718" lon="6.46631">
        <ele>916</ele>
        <time>2022-06-09T23:52:28Z</time>
      </trkpt>
      <trkpt lat="45.70736" lon="6.46563">
        <ele>921</ele>
        <time>2022-06-09T23:52:40Z</time>
      </trkpt>
      <trkpt lat="45.70798" lon="6.46422">
        <ele>920</ele>
        <time>2022-06-09T23:53:07Z</time>
      </trkpt>
      <trkpt lat="45.70798" lon="6.4627">
        <ele>935</ele>
        <time>2022-06-09T23:53:32Z</time>
      </trkpt>
      <trkpt lat="45.70811" lon="6.46163">
        <ele>940</ele>
        <time>2022-06-09T23:53:50Z</time>
      </trkpt>
      <trkpt lat="45.70828" lon="6.46102">
        <ele>945</ele>
        <time>2022-06-09T23:54:00Z</time>
      </trkpt>
      <trkpt lat="45.70814" lon="6.46095">
        <ele>952</ele>
        <time>2022-06-09T23:54:04Z</time>
      </trkpt>
      <trkpt lat="45.70778" lon="6.46227">
        <ele>946</ele>
        <time>2022-06-09T23:54:27Z</time>
      </trkpt>
      <trkpt lat="45.70765" lon="6.46248">
        <ele>950</ele>
        <time>2022-06-09T23:54:32Z</time>
      </trkpt>
    </trkseg>
  </trk>
</gpx>